<?xml version="1.0" encoding="UTF-8" standalone="no" ?>
<gpx xmlns="http://www.topografix.com/GPX/1/1" xmlns:xsi="http://www.w3.org/2001/XMLSchema-instance" xsi:schemaLocation="http://www.topografix.com/GPX/1/1 http://www.topografix.com/GPX/1/1/gpx.xsd" version="1.1" creator="VisuGPX - https://www.visugpx.com">
  <metadata>
    <name>CHARMARIN</name>
    <desc><![CDATA[Charmarin - Chalezeule]]></desc>
  </metadata>
  <trk>
    <name><![CDATA[CHARMARIN]]></name>
    <trkseg>
      <trkpt lat="47.25129" lon="6.06032">
        <ele>338.3</ele>
        <time>2012-02-13T12:48:24Z</time>
      </trkpt>
      <trkpt lat="47.25129" lon="6.06032">
        <ele>383.2</ele>
        <time>2012-02-13T12:48:31Z</time>
      </trkpt>
      <trkpt lat="47.25129" lon="6.06032">
        <ele>338.3</ele>
        <time>2012-02-13T12:48:43Z</time>
      </trkpt>
      <trkpt lat="47.25129" lon="6.06032">
        <ele>338.3</ele>
        <time>2012-02-13T12:49:46Z</time>
      </trkpt>
      <trkpt lat="47.25117" lon="6.06032">
        <ele>384.3</ele>
        <time>2012-02-13T12:49:53Z</time>
      </trkpt>
      <trkpt lat="47.25112" lon="6.06039">
        <ele>385.3</ele>
        <time>2012-02-13T12:49:59Z</time>
      </trkpt>
      <trkpt lat="47.25107" lon="6.06046">
        <ele>385.3</ele>
        <time>2012-02-13T12:50:07Z</time>
      </trkpt>
      <trkpt lat="47.25103" lon="6.06054">
        <ele>386.8</ele>
        <time>2012-02-13T12:50:11Z</time>
      </trkpt>
      <trkpt lat="47.251" lon="6.06064">
        <ele>386.4</ele>
        <time>2012-02-13T12:50:20Z</time>
      </trkpt>
      <trkpt lat="47.25098" lon="6.06073">
        <ele>386.4</ele>
        <time>2012-02-13T12:50:26Z</time>
      </trkpt>
      <trkpt lat="47.25095" lon="6.06082">
        <ele>386.6</ele>
        <time>2012-02-13T12:50:31Z</time>
      </trkpt>
      <trkpt lat="47.25089" lon="6.06089">
        <ele>387.6</ele>
        <time>2012-02-13T12:50:37Z</time>
      </trkpt>
      <trkpt lat="47.25085" lon="6.06096">
        <ele>389</ele>
        <time>2012-02-13T12:50:42Z</time>
      </trkpt>
      <trkpt lat="47.2508" lon="6.06106">
        <ele>389.3</ele>
        <time>2012-02-13T12:50:48Z</time>
      </trkpt>
      <trkpt lat="47.25077" lon="6.06115">
        <ele>390.2</ele>
        <time>2012-02-13T12:50:54Z</time>
      </trkpt>
      <trkpt lat="47.25071" lon="6.06119">
        <ele>390.5</ele>
        <time>2012-02-13T12:50:59Z</time>
      </trkpt>
      <trkpt lat="47.25067" lon="6.06128">
        <ele>389.1</ele>
        <time>2012-02-13T12:51:06Z</time>
      </trkpt>
      <trkpt lat="47.25063" lon="6.06135">
        <ele>387.9</ele>
        <time>2012-02-13T12:51:11Z</time>
      </trkpt>
      <trkpt lat="47.25061" lon="6.06144">
        <ele>388.8</ele>
        <time>2012-02-13T12:51:17Z</time>
      </trkpt>
      <trkpt lat="47.25057" lon="6.06152">
        <ele>391.8</ele>
        <time>2012-02-13T12:51:25Z</time>
      </trkpt>
      <trkpt lat="47.25054" lon="6.0616">
        <ele>391.6</ele>
        <time>2012-02-13T12:51:31Z</time>
      </trkpt>
      <trkpt lat="47.25048" lon="6.06168">
        <ele>391</ele>
        <time>2012-02-13T12:51:37Z</time>
      </trkpt>
      <trkpt lat="47.25046" lon="6.06179">
        <ele>392.1</ele>
        <time>2012-02-13T12:51:44Z</time>
      </trkpt>
      <trkpt lat="47.2504" lon="6.06184">
        <ele>392.3</ele>
        <time>2012-02-13T12:51:49Z</time>
      </trkpt>
      <trkpt lat="47.25035" lon="6.06193">
        <ele>392.6</ele>
        <time>2012-02-13T12:51:54Z</time>
      </trkpt>
      <trkpt lat="47.25032" lon="6.06203">
        <ele>393.2</ele>
        <time>2012-02-13T12:51:59Z</time>
      </trkpt>
      <trkpt lat="47.25028" lon="6.06213">
        <ele>393.5</ele>
        <time>2012-02-13T12:52:05Z</time>
      </trkpt>
      <trkpt lat="47.25024" lon="6.06222">
        <ele>395.9</ele>
        <time>2012-02-13T12:52:11Z</time>
      </trkpt>
      <trkpt lat="47.25018" lon="6.06226">
        <ele>397.9</ele>
        <time>2012-02-13T12:52:19Z</time>
      </trkpt>
      <trkpt lat="47.25012" lon="6.06233">
        <ele>399</ele>
        <time>2012-02-13T12:52:26Z</time>
      </trkpt>
      <trkpt lat="47.25007" lon="6.06241">
        <ele>401.9</ele>
        <time>2012-02-13T12:52:31Z</time>
      </trkpt>
      <trkpt lat="47.25005" lon="6.0625">
        <ele>400.2</ele>
        <time>2012-02-13T12:52:38Z</time>
      </trkpt>
      <trkpt lat="47.25" lon="6.06258">
        <ele>401.3</ele>
        <time>2012-02-13T12:52:44Z</time>
      </trkpt>
      <trkpt lat="47.25" lon="6.06258">
        <ele>354</ele>
        <time>2012-02-13T12:52:55Z</time>
      </trkpt>
      <trkpt lat="47.25" lon="6.06258">
        <ele>354</ele>
        <time>2012-02-13T12:53:02Z</time>
      </trkpt>
      <trkpt lat="47.24987" lon="6.06253">
        <ele>400.5</ele>
        <time>2012-02-13T12:53:07Z</time>
      </trkpt>
      <trkpt lat="47.24981" lon="6.06249">
        <ele>400.7</ele>
        <time>2012-02-13T12:53:13Z</time>
      </trkpt>
      <trkpt lat="47.24974" lon="6.06246">
        <ele>402.4</ele>
        <time>2012-02-13T12:53:18Z</time>
      </trkpt>
      <trkpt lat="47.24967" lon="6.06248">
        <ele>402.5</ele>
        <time>2012-02-13T12:53:24Z</time>
      </trkpt>
      <trkpt lat="47.2496" lon="6.06246">
        <ele>403.4</ele>
        <time>2012-02-13T12:53:33Z</time>
      </trkpt>
      <trkpt lat="47.24953" lon="6.06241">
        <ele>403</ele>
        <time>2012-02-13T12:53:41Z</time>
      </trkpt>
      <trkpt lat="47.24948" lon="6.06236">
        <ele>404.7</ele>
        <time>2012-02-13T12:53:47Z</time>
      </trkpt>
      <trkpt lat="47.24948" lon="6.06236">
        <ele>353.9</ele>
        <time>2012-02-13T12:53:58Z</time>
      </trkpt>
      <trkpt lat="47.24948" lon="6.06236">
        <ele>353.9</ele>
        <time>2012-02-13T12:56:07Z</time>
      </trkpt>
      <trkpt lat="47.24936" lon="6.06223">
        <ele>401</ele>
        <time>2012-02-13T12:56:12Z</time>
      </trkpt>
      <trkpt lat="47.24932" lon="6.06215">
        <ele>402.2</ele>
        <time>2012-02-13T12:56:16Z</time>
      </trkpt>
      <trkpt lat="47.24928" lon="6.06208">
        <ele>402.9</ele>
        <time>2012-02-13T12:56:22Z</time>
      </trkpt>
      <trkpt lat="47.24924" lon="6.06201">
        <ele>404.5</ele>
        <time>2012-02-13T12:56:29Z</time>
      </trkpt>
      <trkpt lat="47.24917" lon="6.06202">
        <ele>401.8</ele>
        <time>2012-02-13T12:56:33Z</time>
      </trkpt>
      <trkpt lat="47.24909" lon="6.06201">
        <ele>401.6</ele>
        <time>2012-02-13T12:56:37Z</time>
      </trkpt>
      <trkpt lat="47.24903" lon="6.062">
        <ele>402.9</ele>
        <time>2012-02-13T12:56:43Z</time>
      </trkpt>
      <trkpt lat="47.24897" lon="6.06204">
        <ele>401.3</ele>
        <time>2012-02-13T12:56:50Z</time>
      </trkpt>
      <trkpt lat="47.2489" lon="6.06207">
        <ele>402.2</ele>
        <time>2012-02-13T12:56:57Z</time>
      </trkpt>
      <trkpt lat="47.24883" lon="6.06208">
        <ele>402.2</ele>
        <time>2012-02-13T12:57:03Z</time>
      </trkpt>
      <trkpt lat="47.24876" lon="6.06209">
        <ele>406.8</ele>
        <time>2012-02-13T12:57:11Z</time>
      </trkpt>
      <trkpt lat="47.24872" lon="6.06218">
        <ele>407.9</ele>
        <time>2012-02-13T12:57:20Z</time>
      </trkpt>
      <trkpt lat="47.24873" lon="6.06228">
        <ele>404.2</ele>
        <time>2012-02-13T12:57:25Z</time>
      </trkpt>
      <trkpt lat="47.24868" lon="6.06236">
        <ele>404.8</ele>
        <time>2012-02-13T12:57:32Z</time>
      </trkpt>
      <trkpt lat="47.24864" lon="6.06244">
        <ele>406.1</ele>
        <time>2012-02-13T12:57:37Z</time>
      </trkpt>
      <trkpt lat="47.24865" lon="6.06253">
        <ele>405.5</ele>
        <time>2012-02-13T12:57:41Z</time>
      </trkpt>
      <trkpt lat="47.24865" lon="6.06253">
        <ele>361.4</ele>
        <time>2012-02-13T12:57:52Z</time>
      </trkpt>
      <trkpt lat="47.24865" lon="6.06253">
        <ele>361.4</ele>
        <time>2012-02-13T12:58:51Z</time>
      </trkpt>
      <trkpt lat="47.24876" lon="6.06243">
        <ele>409.8</ele>
        <time>2012-02-13T12:58:56Z</time>
      </trkpt>
      <trkpt lat="47.24877" lon="6.06233">
        <ele>409.9</ele>
        <time>2012-02-13T12:59:00Z</time>
      </trkpt>
      <trkpt lat="47.24878" lon="6.06222">
        <ele>411</ele>
        <time>2012-02-13T12:59:07Z</time>
      </trkpt>
      <trkpt lat="47.24871" lon="6.06216">
        <ele>410.2</ele>
        <time>2012-02-13T12:59:17Z</time>
      </trkpt>
      <trkpt lat="47.24863" lon="6.06217">
        <ele>410.3</ele>
        <time>2012-02-13T12:59:23Z</time>
      </trkpt>
      <trkpt lat="47.24856" lon="6.06219">
        <ele>410.3</ele>
        <time>2012-02-13T12:59:30Z</time>
      </trkpt>
      <trkpt lat="47.2485" lon="6.06222">
        <ele>410.5</ele>
        <time>2012-02-13T12:59:36Z</time>
      </trkpt>
      <trkpt lat="47.24843" lon="6.06223">
        <ele>410.8</ele>
        <time>2012-02-13T12:59:40Z</time>
      </trkpt>
      <trkpt lat="47.24838" lon="6.06228">
        <ele>413.3</ele>
        <time>2012-02-13T12:59:47Z</time>
      </trkpt>
      <trkpt lat="47.24831" lon="6.0623">
        <ele>414.1</ele>
        <time>2012-02-13T12:59:54Z</time>
      </trkpt>
      <trkpt lat="47.24824" lon="6.06232">
        <ele>413.1</ele>
        <time>2012-02-13T13:00:01Z</time>
      </trkpt>
      <trkpt lat="47.24818" lon="6.06238">
        <ele>415</ele>
        <time>2012-02-13T13:00:09Z</time>
      </trkpt>
      <trkpt lat="47.24812" lon="6.06243">
        <ele>416.2</ele>
        <time>2012-02-13T13:00:16Z</time>
      </trkpt>
      <trkpt lat="47.24805" lon="6.06242">
        <ele>414.9</ele>
        <time>2012-02-13T13:00:23Z</time>
      </trkpt>
      <trkpt lat="47.24798" lon="6.06239">
        <ele>417.6</ele>
        <time>2012-02-13T13:00:29Z</time>
      </trkpt>
      <trkpt lat="47.24793" lon="6.06233">
        <ele>417.5</ele>
        <time>2012-02-13T13:00:36Z</time>
      </trkpt>
      <trkpt lat="47.24793" lon="6.06233">
        <ele>369.2</ele>
        <time>2012-02-13T13:00:47Z</time>
      </trkpt>
      <trkpt lat="47.24793" lon="6.06233">
        <ele>369.2</ele>
        <time>2012-02-13T13:00:50Z</time>
      </trkpt>
      <trkpt lat="47.24783" lon="6.06221">
        <ele>416.9</ele>
        <time>2012-02-13T13:00:54Z</time>
      </trkpt>
      <trkpt lat="47.24779" lon="6.06212">
        <ele>419.3</ele>
        <time>2012-02-13T13:01:00Z</time>
      </trkpt>
      <trkpt lat="47.24773" lon="6.06214">
        <ele>421.7</ele>
        <time>2012-02-13T13:01:04Z</time>
      </trkpt>
      <trkpt lat="47.24767" lon="6.06216">
        <ele>422.4</ele>
        <time>2012-02-13T13:01:09Z</time>
      </trkpt>
      <trkpt lat="47.2476" lon="6.06214">
        <ele>423.1</ele>
        <time>2012-02-13T13:01:15Z</time>
      </trkpt>
      <trkpt lat="47.24753" lon="6.06216">
        <ele>424.8</ele>
        <time>2012-02-13T13:01:24Z</time>
      </trkpt>
      <trkpt lat="47.24747" lon="6.0622">
        <ele>426.2</ele>
        <time>2012-02-13T13:01:31Z</time>
      </trkpt>
      <trkpt lat="47.24747" lon="6.0622">
        <ele>373.5</ele>
        <time>2012-02-13T13:01:42Z</time>
      </trkpt>
      <trkpt lat="47.24747" lon="6.0622">
        <ele>373.5</ele>
        <time>2012-02-13T13:06:17Z</time>
      </trkpt>
      <trkpt lat="47.24747" lon="6.0622">
        <ele>373.5</ele>
        <time>2012-02-13T13:06:28Z</time>
      </trkpt>
      <trkpt lat="47.24747" lon="6.0622">
        <ele>373.5</ele>
        <time>2012-02-13T13:06:40Z</time>
      </trkpt>
      <trkpt lat="47.24732" lon="6.06202">
        <ele>421.2</ele>
        <time>2012-02-13T13:06:47Z</time>
      </trkpt>
      <trkpt lat="47.24726" lon="6.06199">
        <ele>421.2</ele>
        <time>2012-02-13T13:06:54Z</time>
      </trkpt>
      <trkpt lat="47.2472" lon="6.06198">
        <ele>420.5</ele>
        <time>2012-02-13T13:07:01Z</time>
      </trkpt>
      <trkpt lat="47.24714" lon="6.06193">
        <ele>419.5</ele>
        <time>2012-02-13T13:07:08Z</time>
      </trkpt>
      <trkpt lat="47.24708" lon="6.06188">
        <ele>421.2</ele>
        <time>2012-02-13T13:07:17Z</time>
      </trkpt>
      <trkpt lat="47.24701" lon="6.0619">
        <ele>420.9</ele>
        <time>2012-02-13T13:07:21Z</time>
      </trkpt>
      <trkpt lat="47.24694" lon="6.06188">
        <ele>421.6</ele>
        <time>2012-02-13T13:07:26Z</time>
      </trkpt>
      <trkpt lat="47.24686" lon="6.06186">
        <ele>420.6</ele>
        <time>2012-02-13T13:07:32Z</time>
      </trkpt>
      <trkpt lat="47.2468" lon="6.06182">
        <ele>421.4</ele>
        <time>2012-02-13T13:07:40Z</time>
      </trkpt>
      <trkpt lat="47.24673" lon="6.06179">
        <ele>421.7</ele>
        <time>2012-02-13T13:07:46Z</time>
      </trkpt>
      <trkpt lat="47.24666" lon="6.06178">
        <ele>423.2</ele>
        <time>2012-02-13T13:07:52Z</time>
      </trkpt>
      <trkpt lat="47.24659" lon="6.06174">
        <ele>422.1</ele>
        <time>2012-02-13T13:07:59Z</time>
      </trkpt>
      <trkpt lat="47.24652" lon="6.06171">
        <ele>422.2</ele>
        <time>2012-02-13T13:08:05Z</time>
      </trkpt>
      <trkpt lat="47.24645" lon="6.0617">
        <ele>421.7</ele>
        <time>2012-02-13T13:08:12Z</time>
      </trkpt>
      <trkpt lat="47.24638" lon="6.06167">
        <ele>420.6</ele>
        <time>2012-02-13T13:08:19Z</time>
      </trkpt>
      <trkpt lat="47.2463" lon="6.06165">
        <ele>418.6</ele>
        <time>2012-02-13T13:08:26Z</time>
      </trkpt>
      <trkpt lat="47.24623" lon="6.06161">
        <ele>417.2</ele>
        <time>2012-02-13T13:08:31Z</time>
      </trkpt>
      <trkpt lat="47.24614" lon="6.0616">
        <ele>415.1</ele>
        <time>2012-02-13T13:08:38Z</time>
      </trkpt>
      <trkpt lat="47.24608" lon="6.06157">
        <ele>415</ele>
        <time>2012-02-13T13:08:45Z</time>
      </trkpt>
      <trkpt lat="47.24601" lon="6.06153">
        <ele>416.2</ele>
        <time>2012-02-13T13:08:50Z</time>
      </trkpt>
      <trkpt lat="47.24594" lon="6.06151">
        <ele>416.4</ele>
        <time>2012-02-13T13:08:58Z</time>
      </trkpt>
      <trkpt lat="47.24588" lon="6.06146">
        <ele>415.5</ele>
        <time>2012-02-13T13:09:05Z</time>
      </trkpt>
      <trkpt lat="47.24581" lon="6.0614">
        <ele>415.6</ele>
        <time>2012-02-13T13:09:10Z</time>
      </trkpt>
      <trkpt lat="47.24575" lon="6.06135">
        <ele>415.4</ele>
        <time>2012-02-13T13:09:18Z</time>
      </trkpt>
      <trkpt lat="47.24568" lon="6.06132">
        <ele>414.7</ele>
        <time>2012-02-13T13:09:25Z</time>
      </trkpt>
      <trkpt lat="47.24561" lon="6.0613">
        <ele>415</ele>
        <time>2012-02-13T13:09:29Z</time>
      </trkpt>
      <trkpt lat="47.24556" lon="6.06122">
        <ele>414.1</ele>
        <time>2012-02-13T13:09:38Z</time>
      </trkpt>
      <trkpt lat="47.24552" lon="6.06114">
        <ele>414</ele>
        <time>2012-02-13T13:09:45Z</time>
      </trkpt>
      <trkpt lat="47.24547" lon="6.06107">
        <ele>412.9</ele>
        <time>2012-02-13T13:09:50Z</time>
      </trkpt>
      <trkpt lat="47.24541" lon="6.06106">
        <ele>413</ele>
        <time>2012-02-13T13:09:56Z</time>
      </trkpt>
      <trkpt lat="47.24533" lon="6.06102">
        <ele>413.1</ele>
        <time>2012-02-13T13:10:02Z</time>
      </trkpt>
      <trkpt lat="47.24527" lon="6.06103">
        <ele>411.9</ele>
        <time>2012-02-13T13:10:11Z</time>
      </trkpt>
      <trkpt lat="47.24519" lon="6.06101">
        <ele>412</ele>
        <time>2012-02-13T13:10:14Z</time>
      </trkpt>
      <trkpt lat="47.2451" lon="6.06103">
        <ele>412.1</ele>
        <time>2012-02-13T13:10:20Z</time>
      </trkpt>
      <trkpt lat="47.24505" lon="6.06097">
        <ele>411.3</ele>
        <time>2012-02-13T13:10:29Z</time>
      </trkpt>
      <trkpt lat="47.24505" lon="6.06097">
        <ele>350.7</ele>
        <time>2012-02-13T13:10:40Z</time>
      </trkpt>
      <trkpt lat="47.24505" lon="6.06097">
        <ele>350.7</ele>
        <time>2012-02-13T13:10:41Z</time>
      </trkpt>
      <trkpt lat="47.24505" lon="6.06097">
        <ele>350.7</ele>
        <time>2012-02-13T13:10:52Z</time>
      </trkpt>
      <trkpt lat="47.24505" lon="6.06097">
        <ele>350.7</ele>
        <time>2012-02-13T13:12:09Z</time>
      </trkpt>
      <trkpt lat="47.24505" lon="6.06097">
        <ele>350.7</ele>
        <time>2012-02-13T13:12:20Z</time>
      </trkpt>
      <trkpt lat="47.24505" lon="6.06097">
        <ele>350.7</ele>
        <time>2012-02-13T13:12:29Z</time>
      </trkpt>
      <trkpt lat="47.24505" lon="6.06097">
        <ele>350.7</ele>
        <time>2012-02-13T13:12:40Z</time>
      </trkpt>
      <trkpt lat="47.24505" lon="6.06097">
        <ele>350.7</ele>
        <time>2012-02-13T13:13:03Z</time>
      </trkpt>
      <trkpt lat="47.24483" lon="6.0613">
        <ele>386.5</ele>
        <time>2012-02-13T13:13:10Z</time>
      </trkpt>
      <trkpt lat="47.24483" lon="6.0613">
        <ele>338.1</ele>
        <time>2012-02-13T13:13:21Z</time>
      </trkpt>
      <trkpt lat="47.24483" lon="6.0613">
        <ele>338.1</ele>
        <time>2012-02-13T13:13:23Z</time>
      </trkpt>
      <trkpt lat="47.24475" lon="6.06148">
        <ele>383.5</ele>
        <time>2012-02-13T13:13:32Z</time>
      </trkpt>
      <trkpt lat="47.24469" lon="6.06157">
        <ele>383.6</ele>
        <time>2012-02-13T13:13:38Z</time>
      </trkpt>
      <trkpt lat="47.24463" lon="6.06165">
        <ele>382.7</ele>
        <time>2012-02-13T13:13:44Z</time>
      </trkpt>
      <trkpt lat="47.24458" lon="6.06171">
        <ele>383.8</ele>
        <time>2012-02-13T13:13:49Z</time>
      </trkpt>
      <trkpt lat="47.24454" lon="6.06178">
        <ele>384</ele>
        <time>2012-02-13T13:13:55Z</time>
      </trkpt>
      <trkpt lat="47.24448" lon="6.06183">
        <ele>383.4</ele>
        <time>2012-02-13T13:14:01Z</time>
      </trkpt>
      <trkpt lat="47.24441" lon="6.06184">
        <ele>382.8</ele>
        <time>2012-02-13T13:14:04Z</time>
      </trkpt>
      <trkpt lat="47.24435" lon="6.06184">
        <ele>381</ele>
        <time>2012-02-13T13:14:08Z</time>
      </trkpt>
      <trkpt lat="47.24427" lon="6.06187">
        <ele>379.5</ele>
        <time>2012-02-13T13:14:17Z</time>
      </trkpt>
      <trkpt lat="47.2442" lon="6.06188">
        <ele>377.3</ele>
        <time>2012-02-13T13:14:24Z</time>
      </trkpt>
      <trkpt lat="47.24413" lon="6.06189">
        <ele>376.5</ele>
        <time>2012-02-13T13:14:33Z</time>
      </trkpt>
      <trkpt lat="47.24413" lon="6.06189">
        <ele>324.6</ele>
        <time>2012-02-13T13:14:44Z</time>
      </trkpt>
      <trkpt lat="47.24413" lon="6.06189">
        <ele>324.6</ele>
        <time>2012-02-13T13:15:02Z</time>
      </trkpt>
      <trkpt lat="47.24397" lon="6.06185">
        <ele>374.2</ele>
        <time>2012-02-13T13:15:07Z</time>
      </trkpt>
      <trkpt lat="47.24389" lon="6.06185">
        <ele>374.2</ele>
        <time>2012-02-13T13:15:14Z</time>
      </trkpt>
      <trkpt lat="47.24383" lon="6.06181">
        <ele>373.1</ele>
        <time>2012-02-13T13:15:21Z</time>
      </trkpt>
      <trkpt lat="47.24377" lon="6.06176">
        <ele>372.3</ele>
        <time>2012-02-13T13:15:26Z</time>
      </trkpt>
      <trkpt lat="47.24371" lon="6.06178">
        <ele>371.9</ele>
        <time>2012-02-13T13:15:31Z</time>
      </trkpt>
      <trkpt lat="47.24363" lon="6.06174">
        <ele>371.1</ele>
        <time>2012-02-13T13:15:35Z</time>
      </trkpt>
      <trkpt lat="47.24356" lon="6.06173">
        <ele>367.7</ele>
        <time>2012-02-13T13:15:42Z</time>
      </trkpt>
      <trkpt lat="47.24349" lon="6.0617">
        <ele>365</ele>
        <time>2012-02-13T13:15:50Z</time>
      </trkpt>
      <trkpt lat="47.24341" lon="6.06173">
        <ele>364</ele>
        <time>2012-02-13T13:15:57Z</time>
      </trkpt>
      <trkpt lat="47.24335" lon="6.06177">
        <ele>364</ele>
        <time>2012-02-13T13:16:04Z</time>
      </trkpt>
      <trkpt lat="47.24329" lon="6.06177">
        <ele>363.4</ele>
        <time>2012-02-13T13:16:08Z</time>
      </trkpt>
      <trkpt lat="47.24323" lon="6.06173">
        <ele>362.8</ele>
        <time>2012-02-13T13:16:14Z</time>
      </trkpt>
      <trkpt lat="47.24318" lon="6.06164">
        <ele>362.5</ele>
        <time>2012-02-13T13:16:19Z</time>
      </trkpt>
      <trkpt lat="47.24312" lon="6.06165">
        <ele>362.4</ele>
        <time>2012-02-13T13:16:24Z</time>
      </trkpt>
      <trkpt lat="47.24306" lon="6.0616">
        <ele>362</ele>
        <time>2012-02-13T13:16:28Z</time>
      </trkpt>
      <trkpt lat="47.24298" lon="6.06158">
        <ele>362.3</ele>
        <time>2012-02-13T13:16:34Z</time>
      </trkpt>
      <trkpt lat="47.24292" lon="6.06154">
        <ele>363.1</ele>
        <time>2012-02-13T13:16:37Z</time>
      </trkpt>
      <trkpt lat="47.24286" lon="6.06154">
        <ele>363.4</ele>
        <time>2012-02-13T13:16:43Z</time>
      </trkpt>
      <trkpt lat="47.24278" lon="6.06147">
        <ele>362.2</ele>
        <time>2012-02-13T13:16:50Z</time>
      </trkpt>
      <trkpt lat="47.24272" lon="6.06143">
        <ele>360</ele>
        <time>2012-02-13T13:16:57Z</time>
      </trkpt>
      <trkpt lat="47.24266" lon="6.06137">
        <ele>359.2</ele>
        <time>2012-02-13T13:17:04Z</time>
      </trkpt>
      <trkpt lat="47.24259" lon="6.06132">
        <ele>359.1</ele>
        <time>2012-02-13T13:17:09Z</time>
      </trkpt>
      <trkpt lat="47.24254" lon="6.06127">
        <ele>357.4</ele>
        <time>2012-02-13T13:17:14Z</time>
      </trkpt>
      <trkpt lat="47.24248" lon="6.06123">
        <ele>355.8</ele>
        <time>2012-02-13T13:17:21Z</time>
      </trkpt>
      <trkpt lat="47.24241" lon="6.0612">
        <ele>355.7</ele>
        <time>2012-02-13T13:17:27Z</time>
      </trkpt>
      <trkpt lat="47.24236" lon="6.06115">
        <ele>354.5</ele>
        <time>2012-02-13T13:17:31Z</time>
      </trkpt>
      <trkpt lat="47.24229" lon="6.06112">
        <ele>354.1</ele>
        <time>2012-02-13T13:17:37Z</time>
      </trkpt>
      <trkpt lat="47.24221" lon="6.06109">
        <ele>355.8</ele>
        <time>2012-02-13T13:17:44Z</time>
      </trkpt>
      <trkpt lat="47.24215" lon="6.06103">
        <ele>355.8</ele>
        <time>2012-02-13T13:17:47Z</time>
      </trkpt>
      <trkpt lat="47.24215" lon="6.06103">
        <ele>303.8</ele>
        <time>2012-02-13T13:17:58Z</time>
      </trkpt>
      <trkpt lat="47.24215" lon="6.06103">
        <ele>303.8</ele>
        <time>2012-02-13T13:18:00Z</time>
      </trkpt>
      <trkpt lat="47.24202" lon="6.06095">
        <ele>356.5</ele>
        <time>2012-02-13T13:18:07Z</time>
      </trkpt>
      <trkpt lat="47.24196" lon="6.0609">
        <ele>355.7</ele>
        <time>2012-02-13T13:18:12Z</time>
      </trkpt>
      <trkpt lat="47.24189" lon="6.06085">
        <ele>354.4</ele>
        <time>2012-02-13T13:18:22Z</time>
      </trkpt>
      <trkpt lat="47.24182" lon="6.06079">
        <ele>353.4</ele>
        <time>2012-02-13T13:18:29Z</time>
      </trkpt>
      <trkpt lat="47.24175" lon="6.06076">
        <ele>353.2</ele>
        <time>2012-02-13T13:18:35Z</time>
      </trkpt>
      <trkpt lat="47.24169" lon="6.06074">
        <ele>353.5</ele>
        <time>2012-02-13T13:18:41Z</time>
      </trkpt>
      <trkpt lat="47.24163" lon="6.0607">
        <ele>353.8</ele>
        <time>2012-02-13T13:18:45Z</time>
      </trkpt>
      <trkpt lat="47.24156" lon="6.06069">
        <ele>353</ele>
        <time>2012-02-13T13:18:50Z</time>
      </trkpt>
      <trkpt lat="47.2415" lon="6.06067">
        <ele>352.6</ele>
        <time>2012-02-13T13:18:55Z</time>
      </trkpt>
      <trkpt lat="47.24144" lon="6.06063">
        <ele>352.7</ele>
        <time>2012-02-13T13:19:00Z</time>
      </trkpt>
      <trkpt lat="47.24136" lon="6.06062">
        <ele>350.4</ele>
        <time>2012-02-13T13:19:08Z</time>
      </trkpt>
      <trkpt lat="47.2413" lon="6.06056">
        <ele>350.5</ele>
        <time>2012-02-13T13:19:14Z</time>
      </trkpt>
      <trkpt lat="47.24124" lon="6.06052">
        <ele>350.9</ele>
        <time>2012-02-13T13:19:18Z</time>
      </trkpt>
      <trkpt lat="47.24116" lon="6.0605">
        <ele>346.9</ele>
        <time>2012-02-13T13:19:25Z</time>
      </trkpt>
      <trkpt lat="47.2411" lon="6.06047">
        <ele>344.7</ele>
        <time>2012-02-13T13:19:35Z</time>
      </trkpt>
      <trkpt lat="47.24102" lon="6.06045">
        <ele>342.5</ele>
        <time>2012-02-13T13:19:42Z</time>
      </trkpt>
      <trkpt lat="47.24095" lon="6.06039">
        <ele>342.4</ele>
        <time>2012-02-13T13:19:49Z</time>
      </trkpt>
      <trkpt lat="47.24088" lon="6.06037">
        <ele>340.8</ele>
        <time>2012-02-13T13:19:54Z</time>
      </trkpt>
      <trkpt lat="47.24082" lon="6.0604">
        <ele>340.5</ele>
        <time>2012-02-13T13:19:58Z</time>
      </trkpt>
      <trkpt lat="47.24075" lon="6.06035">
        <ele>340.7</ele>
        <time>2012-02-13T13:20:04Z</time>
      </trkpt>
      <trkpt lat="47.24068" lon="6.06036">
        <ele>339.6</ele>
        <time>2012-02-13T13:20:10Z</time>
      </trkpt>
      <trkpt lat="47.2406" lon="6.06039">
        <ele>336.6</ele>
        <time>2012-02-13T13:20:17Z</time>
      </trkpt>
      <trkpt lat="47.24053" lon="6.0604">
        <ele>333.6</ele>
        <time>2012-02-13T13:20:24Z</time>
      </trkpt>
      <trkpt lat="47.24046" lon="6.06041">
        <ele>334.6</ele>
        <time>2012-02-13T13:20:32Z</time>
      </trkpt>
      <trkpt lat="47.24039" lon="6.0604">
        <ele>333.4</ele>
        <time>2012-02-13T13:20:37Z</time>
      </trkpt>
      <trkpt lat="47.24033" lon="6.06037">
        <ele>333.9</ele>
        <time>2012-02-13T13:20:41Z</time>
      </trkpt>
      <trkpt lat="47.24027" lon="6.06034">
        <ele>334.8</ele>
        <time>2012-02-13T13:20:50Z</time>
      </trkpt>
      <trkpt lat="47.2402" lon="6.06034">
        <ele>334.3</ele>
        <time>2012-02-13T13:20:56Z</time>
      </trkpt>
      <trkpt lat="47.24014" lon="6.06033">
        <ele>334.6</ele>
        <time>2012-02-13T13:21:04Z</time>
      </trkpt>
      <trkpt lat="47.24005" lon="6.06035">
        <ele>334.2</ele>
        <time>2012-02-13T13:21:08Z</time>
      </trkpt>
      <trkpt lat="47.23998" lon="6.06037">
        <ele>334.4</ele>
        <time>2012-02-13T13:21:13Z</time>
      </trkpt>
      <trkpt lat="47.23991" lon="6.06037">
        <ele>334.8</ele>
        <time>2012-02-13T13:21:19Z</time>
      </trkpt>
      <trkpt lat="47.23985" lon="6.06032">
        <ele>334.1</ele>
        <time>2012-02-13T13:21:26Z</time>
      </trkpt>
      <trkpt lat="47.23978" lon="6.06032">
        <ele>332.4</ele>
        <time>2012-02-13T13:21:30Z</time>
      </trkpt>
      <trkpt lat="47.23971" lon="6.06035">
        <ele>332.1</ele>
        <time>2012-02-13T13:21:36Z</time>
      </trkpt>
      <trkpt lat="47.23965" lon="6.06035">
        <ele>331.2</ele>
        <time>2012-02-13T13:21:43Z</time>
      </trkpt>
      <trkpt lat="47.23958" lon="6.06036">
        <ele>330.3</ele>
        <time>2012-02-13T13:21:49Z</time>
      </trkpt>
      <trkpt lat="47.23952" lon="6.06033">
        <ele>329.1</ele>
        <time>2012-02-13T13:21:56Z</time>
      </trkpt>
      <trkpt lat="47.23945" lon="6.06034">
        <ele>329.1</ele>
        <time>2012-02-13T13:22:00Z</time>
      </trkpt>
      <trkpt lat="47.23939" lon="6.06032">
        <ele>328.4</ele>
        <time>2012-02-13T13:22:05Z</time>
      </trkpt>
      <trkpt lat="47.23932" lon="6.06032">
        <ele>329.3</ele>
        <time>2012-02-13T13:22:10Z</time>
      </trkpt>
      <trkpt lat="47.23925" lon="6.06029">
        <ele>330.3</ele>
        <time>2012-02-13T13:22:15Z</time>
      </trkpt>
      <trkpt lat="47.23919" lon="6.06027">
        <ele>328.1</ele>
        <time>2012-02-13T13:22:23Z</time>
      </trkpt>
      <trkpt lat="47.23912" lon="6.06023">
        <ele>327.7</ele>
        <time>2012-02-13T13:22:31Z</time>
      </trkpt>
      <trkpt lat="47.23904" lon="6.06019">
        <ele>326</ele>
        <time>2012-02-13T13:22:38Z</time>
      </trkpt>
      <trkpt lat="47.23898" lon="6.06016">
        <ele>322.1</ele>
        <time>2012-02-13T13:22:45Z</time>
      </trkpt>
      <trkpt lat="47.23891" lon="6.06016">
        <ele>319.6</ele>
        <time>2012-02-13T13:22:52Z</time>
      </trkpt>
      <trkpt lat="47.23885" lon="6.06016">
        <ele>319.2</ele>
        <time>2012-02-13T13:22:56Z</time>
      </trkpt>
      <trkpt lat="47.23878" lon="6.06016">
        <ele>318.7</ele>
        <time>2012-02-13T13:23:03Z</time>
      </trkpt>
      <trkpt lat="47.23871" lon="6.06013">
        <ele>316.7</ele>
        <time>2012-02-13T13:23:10Z</time>
      </trkpt>
      <trkpt lat="47.23865" lon="6.0601">
        <ele>315.2</ele>
        <time>2012-02-13T13:23:16Z</time>
      </trkpt>
      <trkpt lat="47.23857" lon="6.06011">
        <ele>316.9</ele>
        <time>2012-02-13T13:23:24Z</time>
      </trkpt>
      <trkpt lat="47.23849" lon="6.06013">
        <ele>316.3</ele>
        <time>2012-02-13T13:23:30Z</time>
      </trkpt>
      <trkpt lat="47.23843" lon="6.06012">
        <ele>315.5</ele>
        <time>2012-02-13T13:23:35Z</time>
      </trkpt>
      <trkpt lat="47.23836" lon="6.06009">
        <ele>316.5</ele>
        <time>2012-02-13T13:23:42Z</time>
      </trkpt>
      <trkpt lat="47.23829" lon="6.0601">
        <ele>317.2</ele>
        <time>2012-02-13T13:23:48Z</time>
      </trkpt>
      <trkpt lat="47.23821" lon="6.06006">
        <ele>317.8</ele>
        <time>2012-02-13T13:23:52Z</time>
      </trkpt>
      <trkpt lat="47.23814" lon="6.06003">
        <ele>317.7</ele>
        <time>2012-02-13T13:23:56Z</time>
      </trkpt>
      <trkpt lat="47.23808" lon="6.06003">
        <ele>317.5</ele>
        <time>2012-02-13T13:24:02Z</time>
      </trkpt>
      <trkpt lat="47.23801" lon="6.06004">
        <ele>314.5</ele>
        <time>2012-02-13T13:24:10Z</time>
      </trkpt>
      <trkpt lat="47.23795" lon="6.06002">
        <ele>312.6</ele>
        <time>2012-02-13T13:24:18Z</time>
      </trkpt>
      <trkpt lat="47.23789" lon="6.05999">
        <ele>312.3</ele>
        <time>2012-02-13T13:24:25Z</time>
      </trkpt>
      <trkpt lat="47.23783" lon="6.05994">
        <ele>313.4</ele>
        <time>2012-02-13T13:24:33Z</time>
      </trkpt>
      <trkpt lat="47.23778" lon="6.05986">
        <ele>313.1</ele>
        <time>2012-02-13T13:24:40Z</time>
      </trkpt>
      <trkpt lat="47.23772" lon="6.05982">
        <ele>313.1</ele>
        <time>2012-02-13T13:24:46Z</time>
      </trkpt>
      <trkpt lat="47.23765" lon="6.05979">
        <ele>313.8</ele>
        <time>2012-02-13T13:24:55Z</time>
      </trkpt>
      <trkpt lat="47.2376" lon="6.05973">
        <ele>313.4</ele>
        <time>2012-02-13T13:24:58Z</time>
      </trkpt>
      <trkpt lat="47.23754" lon="6.05968">
        <ele>313.2</ele>
        <time>2012-02-13T13:25:04Z</time>
      </trkpt>
      <trkpt lat="47.23745" lon="6.05966">
        <ele>312.4</ele>
        <time>2012-02-13T13:25:12Z</time>
      </trkpt>
      <trkpt lat="47.23738" lon="6.05967">
        <ele>311.8</ele>
        <time>2012-02-13T13:25:19Z</time>
      </trkpt>
      <trkpt lat="47.23731" lon="6.05966">
        <ele>310.3</ele>
        <time>2012-02-13T13:25:27Z</time>
      </trkpt>
      <trkpt lat="47.23726" lon="6.05973">
        <ele>310.5</ele>
        <time>2012-02-13T13:25:31Z</time>
      </trkpt>
      <trkpt lat="47.23726" lon="6.05973">
        <ele>250.7</ele>
        <time>2012-02-13T13:25:42Z</time>
      </trkpt>
      <trkpt lat="47.23726" lon="6.05973">
        <ele>250.7</ele>
        <time>2012-02-13T13:25:44Z</time>
      </trkpt>
      <trkpt lat="47.23712" lon="6.05972">
        <ele>300.8</ele>
        <time>2012-02-13T13:25:50Z</time>
      </trkpt>
      <trkpt lat="47.23705" lon="6.05972">
        <ele>300.9</ele>
        <time>2012-02-13T13:25:56Z</time>
      </trkpt>
      <trkpt lat="47.23698" lon="6.05978">
        <ele>299.6</ele>
        <time>2012-02-13T13:26:01Z</time>
      </trkpt>
      <trkpt lat="47.23691" lon="6.05983">
        <ele>299.2</ele>
        <time>2012-02-13T13:26:07Z</time>
      </trkpt>
      <trkpt lat="47.23687" lon="6.0599">
        <ele>296.8</ele>
        <time>2012-02-13T13:26:14Z</time>
      </trkpt>
      <trkpt lat="47.23681" lon="6.05992">
        <ele>293.3</ele>
        <time>2012-02-13T13:26:19Z</time>
      </trkpt>
      <trkpt lat="47.23678" lon="6.06">
        <ele>292.6</ele>
        <time>2012-02-13T13:26:27Z</time>
      </trkpt>
      <trkpt lat="47.23672" lon="6.06006">
        <ele>292.8</ele>
        <time>2012-02-13T13:26:31Z</time>
      </trkpt>
      <trkpt lat="47.23666" lon="6.06011">
        <ele>292.4</ele>
        <time>2012-02-13T13:26:38Z</time>
      </trkpt>
      <trkpt lat="47.23669" lon="6.0602">
        <ele>290.6</ele>
        <time>2012-02-13T13:26:44Z</time>
      </trkpt>
      <trkpt lat="47.23669" lon="6.0602">
        <ele>245.3</ele>
        <time>2012-02-13T13:26:55Z</time>
      </trkpt>
      <trkpt lat="47.23669" lon="6.0602">
        <ele>245.3</ele>
        <time>2012-02-13T13:27:00Z</time>
      </trkpt>
      <trkpt lat="47.23669" lon="6.0602">
        <ele>245.3</ele>
        <time>2012-02-13T13:27:11Z</time>
      </trkpt>
      <trkpt lat="47.23669" lon="6.0602">
        <ele>245.3</ele>
        <time>2012-02-13T13:29:29Z</time>
      </trkpt>
      <trkpt lat="47.23669" lon="6.0602">
        <ele>245.3</ele>
        <time>2012-02-13T13:29:40Z</time>
      </trkpt>
      <trkpt lat="47.23669" lon="6.0602">
        <ele>245.3</ele>
        <time>2012-02-13T13:29:51Z</time>
      </trkpt>
      <trkpt lat="47.2372" lon="6.06046">
        <ele>288.8</ele>
        <time>2012-02-13T13:29:57Z</time>
      </trkpt>
      <trkpt lat="47.23725" lon="6.06051">
        <ele>291.4</ele>
        <time>2012-02-13T13:30:08Z</time>
      </trkpt>
      <trkpt lat="47.23732" lon="6.06052">
        <ele>291.1</ele>
        <time>2012-02-13T13:30:16Z</time>
      </trkpt>
      <trkpt lat="47.23739" lon="6.06055">
        <ele>292.6</ele>
        <time>2012-02-13T13:30:21Z</time>
      </trkpt>
      <trkpt lat="47.23745" lon="6.06058">
        <ele>293.5</ele>
        <time>2012-02-13T13:30:29Z</time>
      </trkpt>
      <trkpt lat="47.23745" lon="6.06058">
        <ele>245</ele>
        <time>2012-02-13T13:30:41Z</time>
      </trkpt>
      <trkpt lat="47.23745" lon="6.06058">
        <ele>245</ele>
        <time>2012-02-13T13:30:48Z</time>
      </trkpt>
      <trkpt lat="47.23758" lon="6.06065">
        <ele>292.4</ele>
        <time>2012-02-13T13:30:54Z</time>
      </trkpt>
      <trkpt lat="47.23765" lon="6.06071">
        <ele>291.6</ele>
        <time>2012-02-13T13:31:01Z</time>
      </trkpt>
      <trkpt lat="47.23771" lon="6.06077">
        <ele>291.2</ele>
        <time>2012-02-13T13:31:08Z</time>
      </trkpt>
      <trkpt lat="47.23776" lon="6.06083">
        <ele>292.2</ele>
        <time>2012-02-13T13:31:15Z</time>
      </trkpt>
      <trkpt lat="47.23782" lon="6.06087">
        <ele>290.7</ele>
        <time>2012-02-13T13:31:20Z</time>
      </trkpt>
      <trkpt lat="47.23788" lon="6.06091">
        <ele>290.3</ele>
        <time>2012-02-13T13:31:26Z</time>
      </trkpt>
      <trkpt lat="47.23793" lon="6.06096">
        <ele>289.4</ele>
        <time>2012-02-13T13:31:30Z</time>
      </trkpt>
      <trkpt lat="47.23799" lon="6.06101">
        <ele>288.9</ele>
        <time>2012-02-13T13:31:35Z</time>
      </trkpt>
      <trkpt lat="47.23805" lon="6.06106">
        <ele>289.3</ele>
        <time>2012-02-13T13:31:41Z</time>
      </trkpt>
      <trkpt lat="47.23812" lon="6.06109">
        <ele>289.5</ele>
        <time>2012-02-13T13:31:48Z</time>
      </trkpt>
      <trkpt lat="47.23818" lon="6.06113">
        <ele>289.1</ele>
        <time>2012-02-13T13:31:53Z</time>
      </trkpt>
      <trkpt lat="47.23825" lon="6.06116">
        <ele>289.2</ele>
        <time>2012-02-13T13:31:57Z</time>
      </trkpt>
      <trkpt lat="47.23832" lon="6.0612">
        <ele>290.6</ele>
        <time>2012-02-13T13:32:06Z</time>
      </trkpt>
      <trkpt lat="47.23837" lon="6.06126">
        <ele>290.6</ele>
        <time>2012-02-13T13:32:10Z</time>
      </trkpt>
      <trkpt lat="47.23843" lon="6.0613">
        <ele>289.1</ele>
        <time>2012-02-13T13:32:15Z</time>
      </trkpt>
      <trkpt lat="47.23849" lon="6.06134">
        <ele>289.2</ele>
        <time>2012-02-13T13:32:21Z</time>
      </trkpt>
      <trkpt lat="47.23856" lon="6.0614">
        <ele>290.1</ele>
        <time>2012-02-13T13:32:27Z</time>
      </trkpt>
      <trkpt lat="47.23856" lon="6.0614">
        <ele>245.6</ele>
        <time>2012-02-13T13:32:38Z</time>
      </trkpt>
      <trkpt lat="47.23856" lon="6.0614">
        <ele>245.6</ele>
        <time>2012-02-13T13:34:58Z</time>
      </trkpt>
      <trkpt lat="47.23871" lon="6.06151">
        <ele>281.2</ele>
        <time>2012-02-13T13:35:03Z</time>
      </trkpt>
      <trkpt lat="47.23879" lon="6.06151">
        <ele>281.4</ele>
        <time>2012-02-13T13:35:09Z</time>
      </trkpt>
      <trkpt lat="47.23888" lon="6.06152">
        <ele>281.8</ele>
        <time>2012-02-13T13:35:14Z</time>
      </trkpt>
      <trkpt lat="47.23894" lon="6.06156">
        <ele>282.3</ele>
        <time>2012-02-13T13:35:19Z</time>
      </trkpt>
      <trkpt lat="47.239" lon="6.06161">
        <ele>282.7</ele>
        <time>2012-02-13T13:35:26Z</time>
      </trkpt>
      <trkpt lat="47.23902" lon="6.0617">
        <ele>289.4</ele>
        <time>2012-02-13T13:35:37Z</time>
      </trkpt>
      <trkpt lat="47.23902" lon="6.0617">
        <ele>244.9</ele>
        <time>2012-02-13T13:35:49Z</time>
      </trkpt>
      <trkpt lat="47.23902" lon="6.0617">
        <ele>244.9</ele>
        <time>2012-02-13T13:36:03Z</time>
      </trkpt>
      <trkpt lat="47.23916" lon="6.06175">
        <ele>291.4</ele>
        <time>2012-02-13T13:36:06Z</time>
      </trkpt>
      <trkpt lat="47.23923" lon="6.06177">
        <ele>291.9</ele>
        <time>2012-02-13T13:36:11Z</time>
      </trkpt>
      <trkpt lat="47.2393" lon="6.06178">
        <ele>291.8</ele>
        <time>2012-02-13T13:36:16Z</time>
      </trkpt>
      <trkpt lat="47.23936" lon="6.06179">
        <ele>290.9</ele>
        <time>2012-02-13T13:36:24Z</time>
      </trkpt>
      <trkpt lat="47.23942" lon="6.06185">
        <ele>291.9</ele>
        <time>2012-02-13T13:36:29Z</time>
      </trkpt>
      <trkpt lat="47.23948" lon="6.0619">
        <ele>290.5</ele>
        <time>2012-02-13T13:36:34Z</time>
      </trkpt>
      <trkpt lat="47.23954" lon="6.06194">
        <ele>290.2</ele>
        <time>2012-02-13T13:36:38Z</time>
      </trkpt>
      <trkpt lat="47.23961" lon="6.06195">
        <ele>291.9</ele>
        <time>2012-02-13T13:36:43Z</time>
      </trkpt>
      <trkpt lat="47.23967" lon="6.06202">
        <ele>291.5</ele>
        <time>2012-02-13T13:36:49Z</time>
      </trkpt>
      <trkpt lat="47.23971" lon="6.06211">
        <ele>293.7</ele>
        <time>2012-02-13T13:36:55Z</time>
      </trkpt>
      <trkpt lat="47.23975" lon="6.06218">
        <ele>294</ele>
        <time>2012-02-13T13:37:01Z</time>
      </trkpt>
      <trkpt lat="47.23982" lon="6.06222">
        <ele>294.6</ele>
        <time>2012-02-13T13:37:07Z</time>
      </trkpt>
      <trkpt lat="47.23988" lon="6.06227">
        <ele>294.9</ele>
        <time>2012-02-13T13:37:12Z</time>
      </trkpt>
      <trkpt lat="47.23994" lon="6.06232">
        <ele>296.3</ele>
        <time>2012-02-13T13:37:19Z</time>
      </trkpt>
      <trkpt lat="47.24001" lon="6.06238">
        <ele>297.1</ele>
        <time>2012-02-13T13:37:26Z</time>
      </trkpt>
      <trkpt lat="47.24005" lon="6.06247">
        <ele>297.5</ele>
        <time>2012-02-13T13:37:35Z</time>
      </trkpt>
      <trkpt lat="47.24011" lon="6.06251">
        <ele>296.6</ele>
        <time>2012-02-13T13:37:40Z</time>
      </trkpt>
      <trkpt lat="47.24018" lon="6.06257">
        <ele>297.2</ele>
        <time>2012-02-13T13:37:45Z</time>
      </trkpt>
      <trkpt lat="47.24024" lon="6.06263">
        <ele>294.7</ele>
        <time>2012-02-13T13:37:53Z</time>
      </trkpt>
      <trkpt lat="47.2403" lon="6.06267">
        <ele>293.4</ele>
        <time>2012-02-13T13:37:58Z</time>
      </trkpt>
      <trkpt lat="47.24037" lon="6.06271">
        <ele>293.3</ele>
        <time>2012-02-13T13:38:03Z</time>
      </trkpt>
      <trkpt lat="47.24043" lon="6.06274">
        <ele>291.8</ele>
        <time>2012-02-13T13:38:10Z</time>
      </trkpt>
      <trkpt lat="47.2405" lon="6.06277">
        <ele>292.1</ele>
        <time>2012-02-13T13:38:15Z</time>
      </trkpt>
      <trkpt lat="47.24056" lon="6.06284">
        <ele>291.6</ele>
        <time>2012-02-13T13:38:21Z</time>
      </trkpt>
      <trkpt lat="47.24061" lon="6.06291">
        <ele>291.6</ele>
        <time>2012-02-13T13:38:26Z</time>
      </trkpt>
      <trkpt lat="47.24067" lon="6.06298">
        <ele>291.1</ele>
        <time>2012-02-13T13:38:32Z</time>
      </trkpt>
      <trkpt lat="47.24074" lon="6.06297">
        <ele>290.8</ele>
        <time>2012-02-13T13:38:41Z</time>
      </trkpt>
      <trkpt lat="47.24074" lon="6.06297">
        <ele>245.2</ele>
        <time>2012-02-13T13:38:53Z</time>
      </trkpt>
      <trkpt lat="47.24074" lon="6.06297">
        <ele>245.2</ele>
        <time>2012-02-13T13:39:36Z</time>
      </trkpt>
      <trkpt lat="47.24074" lon="6.06297">
        <ele>245.2</ele>
        <time>2012-02-13T13:39:47Z</time>
      </trkpt>
      <trkpt lat="47.24074" lon="6.06297">
        <ele>245.2</ele>
        <time>2012-02-13T13:41:40Z</time>
      </trkpt>
      <trkpt lat="47.2409" lon="6.06311">
        <ele>289</ele>
        <time>2012-02-13T13:41:48Z</time>
      </trkpt>
      <trkpt lat="47.2409" lon="6.06311">
        <ele>245</ele>
        <time>2012-02-13T13:41:59Z</time>
      </trkpt>
      <trkpt lat="47.2409" lon="6.06311">
        <ele>245</ele>
        <time>2012-02-13T13:42:22Z</time>
      </trkpt>
      <trkpt lat="47.241" lon="6.06323">
        <ele>287.6</ele>
        <time>2012-02-13T13:42:29Z</time>
      </trkpt>
      <trkpt lat="47.24107" lon="6.06328">
        <ele>289.4</ele>
        <time>2012-02-13T13:42:34Z</time>
      </trkpt>
      <trkpt lat="47.24113" lon="6.0633">
        <ele>289.6</ele>
        <time>2012-02-13T13:42:40Z</time>
      </trkpt>
      <trkpt lat="47.2412" lon="6.06333">
        <ele>291.2</ele>
        <time>2012-02-13T13:42:44Z</time>
      </trkpt>
      <trkpt lat="47.24125" lon="6.0634">
        <ele>292.3</ele>
        <time>2012-02-13T13:42:51Z</time>
      </trkpt>
      <trkpt lat="47.24132" lon="6.06343">
        <ele>291.2</ele>
        <time>2012-02-13T13:42:56Z</time>
      </trkpt>
      <trkpt lat="47.24138" lon="6.06349">
        <ele>293.3</ele>
        <time>2012-02-13T13:43:02Z</time>
      </trkpt>
      <trkpt lat="47.24143" lon="6.06354">
        <ele>293.3</ele>
        <time>2012-02-13T13:43:10Z</time>
      </trkpt>
      <trkpt lat="47.2415" lon="6.06361">
        <ele>292.1</ele>
        <time>2012-02-13T13:43:17Z</time>
      </trkpt>
      <trkpt lat="47.24262" lon="6.06446">
        <ele>283.7</ele>
        <time>2012-02-13T13:45:26Z</time>
      </trkpt>
      <trkpt lat="47.24269" lon="6.0645">
        <ele>285.5</ele>
        <time>2012-02-13T13:45:30Z</time>
      </trkpt>
      <trkpt lat="47.24276" lon="6.06451">
        <ele>285.3</ele>
        <time>2012-02-13T13:45:36Z</time>
      </trkpt>
      <trkpt lat="47.24283" lon="6.06452">
        <ele>285</ele>
        <time>2012-02-13T13:45:42Z</time>
      </trkpt>
      <trkpt lat="47.24289" lon="6.06458">
        <ele>287.1</ele>
        <time>2012-02-13T13:45:49Z</time>
      </trkpt>
      <trkpt lat="47.24295" lon="6.06462">
        <ele>287.2</ele>
        <time>2012-02-13T13:45:53Z</time>
      </trkpt>
      <trkpt lat="47.24299" lon="6.0647">
        <ele>286.9</ele>
        <time>2012-02-13T13:45:58Z</time>
      </trkpt>
      <trkpt lat="47.24305" lon="6.06475">
        <ele>287.8</ele>
        <time>2012-02-13T13:46:03Z</time>
      </trkpt>
      <trkpt lat="47.24312" lon="6.06478">
        <ele>286.8</ele>
        <time>2012-02-13T13:46:10Z</time>
      </trkpt>
      <trkpt lat="47.24312" lon="6.06478">
        <ele>245.8</ele>
        <time>2012-02-13T13:46:21Z</time>
      </trkpt>
      <trkpt lat="47.24312" lon="6.06478">
        <ele>245.8</ele>
        <time>2012-02-13T13:46:22Z</time>
      </trkpt>
      <trkpt lat="47.24325" lon="6.06484">
        <ele>286.8</ele>
        <time>2012-02-13T13:46:27Z</time>
      </trkpt>
      <trkpt lat="47.24325" lon="6.06484">
        <ele>245.9</ele>
        <time>2012-02-13T13:46:38Z</time>
      </trkpt>
      <trkpt lat="47.24325" lon="6.06484">
        <ele>245.9</ele>
        <time>2012-02-13T13:47:28Z</time>
      </trkpt>
      <trkpt lat="47.24334" lon="6.06469">
        <ele>283.9</ele>
        <time>2012-02-13T13:47:31Z</time>
      </trkpt>
      <trkpt lat="47.24336" lon="6.0646">
        <ele>283.5</ele>
        <time>2012-02-13T13:47:39Z</time>
      </trkpt>
      <trkpt lat="47.24339" lon="6.06451">
        <ele>284.8</ele>
        <time>2012-02-13T13:47:46Z</time>
      </trkpt>
      <trkpt lat="47.2434" lon="6.06442">
        <ele>284.1</ele>
        <time>2012-02-13T13:47:54Z</time>
      </trkpt>
      <trkpt lat="47.24346" lon="6.06434">
        <ele>285.9</ele>
        <time>2012-02-13T13:48:01Z</time>
      </trkpt>
      <trkpt lat="47.24352" lon="6.06431">
        <ele>285.1</ele>
        <time>2012-02-13T13:48:08Z</time>
      </trkpt>
      <trkpt lat="47.24352" lon="6.06431">
        <ele>254.9</ele>
        <time>2012-02-13T13:48:20Z</time>
      </trkpt>
      <trkpt lat="47.24352" lon="6.06431">
        <ele>254.9</ele>
        <time>2012-02-13T13:48:23Z</time>
      </trkpt>
      <trkpt lat="47.24352" lon="6.06431">
        <ele>254.9</ele>
        <time>2012-02-13T13:48:34Z</time>
      </trkpt>
      <trkpt lat="47.24352" lon="6.06431">
        <ele>254.9</ele>
        <time>2012-02-13T13:49:04Z</time>
      </trkpt>
      <trkpt lat="47.24365" lon="6.06406">
        <ele>289.1</ele>
        <time>2012-02-13T13:49:09Z</time>
      </trkpt>
      <trkpt lat="47.2437" lon="6.064">
        <ele>289.1</ele>
        <time>2012-02-13T13:49:15Z</time>
      </trkpt>
      <trkpt lat="47.24376" lon="6.06396">
        <ele>289.5</ele>
        <time>2012-02-13T13:49:21Z</time>
      </trkpt>
      <trkpt lat="47.24376" lon="6.06396">
        <ele>265.7</ele>
        <time>2012-02-13T13:49:33Z</time>
      </trkpt>
      <trkpt lat="47.24376" lon="6.06396">
        <ele>265.7</ele>
        <time>2012-02-13T13:50:38Z</time>
      </trkpt>
      <trkpt lat="47.24387" lon="6.06389">
        <ele>298.8</ele>
        <time>2012-02-13T13:50:41Z</time>
      </trkpt>
      <trkpt lat="47.24394" lon="6.06388">
        <ele>301.5</ele>
        <time>2012-02-13T13:50:48Z</time>
      </trkpt>
      <trkpt lat="47.24401" lon="6.06389">
        <ele>303.8</ele>
        <time>2012-02-13T13:50:54Z</time>
      </trkpt>
      <trkpt lat="47.24408" lon="6.06391">
        <ele>305.3</ele>
        <time>2012-02-13T13:51:02Z</time>
      </trkpt>
      <trkpt lat="47.24408" lon="6.06391">
        <ele>272.4</ele>
        <time>2012-02-13T13:51:14Z</time>
      </trkpt>
      <trkpt lat="47.24408" lon="6.06391">
        <ele>272.4</ele>
        <time>2012-02-13T13:51:20Z</time>
      </trkpt>
      <trkpt lat="47.2442" lon="6.06382">
        <ele>309.3</ele>
        <time>2012-02-13T13:51:28Z</time>
      </trkpt>
      <trkpt lat="47.24426" lon="6.06376">
        <ele>310</ele>
        <time>2012-02-13T13:51:34Z</time>
      </trkpt>
      <trkpt lat="47.24432" lon="6.0637">
        <ele>313.3</ele>
        <time>2012-02-13T13:51:43Z</time>
      </trkpt>
      <trkpt lat="47.24438" lon="6.06376">
        <ele>315.9</ele>
        <time>2012-02-13T13:51:51Z</time>
      </trkpt>
      <trkpt lat="47.24438" lon="6.06376">
        <ele>280.3</ele>
        <time>2012-02-13T13:52:02Z</time>
      </trkpt>
      <trkpt lat="47.24438" lon="6.06376">
        <ele>280.3</ele>
        <time>2012-02-13T13:52:03Z</time>
      </trkpt>
      <trkpt lat="47.24449" lon="6.06387">
        <ele>316.7</ele>
        <time>2012-02-13T13:52:10Z</time>
      </trkpt>
      <trkpt lat="47.24456" lon="6.0639">
        <ele>318.3</ele>
        <time>2012-02-13T13:52:15Z</time>
      </trkpt>
      <trkpt lat="47.24462" lon="6.06396">
        <ele>318.6</ele>
        <time>2012-02-13T13:52:22Z</time>
      </trkpt>
      <trkpt lat="47.24468" lon="6.06399">
        <ele>322.5</ele>
        <time>2012-02-13T13:52:31Z</time>
      </trkpt>
      <trkpt lat="47.24474" lon="6.06405">
        <ele>323.4</ele>
        <time>2012-02-13T13:52:36Z</time>
      </trkpt>
      <trkpt lat="47.2448" lon="6.06413">
        <ele>326.4</ele>
        <time>2012-02-13T13:52:45Z</time>
      </trkpt>
      <trkpt lat="47.2448" lon="6.06413">
        <ele>281.2</ele>
        <time>2012-02-13T13:52:56Z</time>
      </trkpt>
      <trkpt lat="47.2448" lon="6.06413">
        <ele>281.2</ele>
        <time>2012-02-13T13:55:53Z</time>
      </trkpt>
      <trkpt lat="47.24491" lon="6.06425">
        <ele>322.2</ele>
        <time>2012-02-13T13:56:00Z</time>
      </trkpt>
      <trkpt lat="47.24498" lon="6.06431">
        <ele>323.8</ele>
        <time>2012-02-13T13:56:05Z</time>
      </trkpt>
      <trkpt lat="47.24503" lon="6.06436">
        <ele>325.1</ele>
        <time>2012-02-13T13:56:08Z</time>
      </trkpt>
      <trkpt lat="47.24509" lon="6.06438">
        <ele>325.8</ele>
        <time>2012-02-13T13:56:14Z</time>
      </trkpt>
      <trkpt lat="47.24515" lon="6.06444">
        <ele>327.9</ele>
        <time>2012-02-13T13:56:20Z</time>
      </trkpt>
      <trkpt lat="47.2452" lon="6.06451">
        <ele>328.3</ele>
        <time>2012-02-13T13:56:28Z</time>
      </trkpt>
      <trkpt lat="47.24526" lon="6.06455">
        <ele>328.8</ele>
        <time>2012-02-13T13:56:34Z</time>
      </trkpt>
      <trkpt lat="47.24532" lon="6.06462">
        <ele>330.2</ele>
        <time>2012-02-13T13:56:39Z</time>
      </trkpt>
      <trkpt lat="47.24538" lon="6.06465">
        <ele>331.1</ele>
        <time>2012-02-13T13:56:47Z</time>
      </trkpt>
      <trkpt lat="47.24544" lon="6.0647">
        <ele>332.1</ele>
        <time>2012-02-13T13:56:55Z</time>
      </trkpt>
      <trkpt lat="47.2455" lon="6.06476">
        <ele>334.1</ele>
        <time>2012-02-13T13:57:01Z</time>
      </trkpt>
      <trkpt lat="47.24556" lon="6.06479">
        <ele>333.8</ele>
        <time>2012-02-13T13:57:05Z</time>
      </trkpt>
      <trkpt lat="47.24562" lon="6.06483">
        <ele>335</ele>
        <time>2012-02-13T13:57:15Z</time>
      </trkpt>
      <trkpt lat="47.24567" lon="6.06492">
        <ele>332.8</ele>
        <time>2012-02-13T13:57:24Z</time>
      </trkpt>
      <trkpt lat="47.24574" lon="6.06495">
        <ele>334</ele>
        <time>2012-02-13T13:57:30Z</time>
      </trkpt>
      <trkpt lat="47.2458" lon="6.06498">
        <ele>331.4</ele>
        <time>2012-02-13T13:57:39Z</time>
      </trkpt>
      <trkpt lat="47.24588" lon="6.06499">
        <ele>331.9</ele>
        <time>2012-02-13T13:57:45Z</time>
      </trkpt>
      <trkpt lat="47.24593" lon="6.06506">
        <ele>331.9</ele>
        <time>2012-02-13T13:57:49Z</time>
      </trkpt>
      <trkpt lat="47.24599" lon="6.06508">
        <ele>331.9</ele>
        <time>2012-02-13T13:57:55Z</time>
      </trkpt>
      <trkpt lat="47.24599" lon="6.06508">
        <ele>287.2</ele>
        <time>2012-02-13T13:58:07Z</time>
      </trkpt>
      <trkpt lat="47.24599" lon="6.06508">
        <ele>287.2</ele>
        <time>2012-02-13T14:00:08Z</time>
      </trkpt>
      <trkpt lat="47.24609" lon="6.0652">
        <ele>333.7</ele>
        <time>2012-02-13T14:00:14Z</time>
      </trkpt>
      <trkpt lat="47.24615" lon="6.06525">
        <ele>332.9</ele>
        <time>2012-02-13T14:00:20Z</time>
      </trkpt>
      <trkpt lat="47.24621" lon="6.0653">
        <ele>332.5</ele>
        <time>2012-02-13T14:00:24Z</time>
      </trkpt>
      <trkpt lat="47.24628" lon="6.06531">
        <ele>333.6</ele>
        <time>2012-02-13T14:00:30Z</time>
      </trkpt>
      <trkpt lat="47.24633" lon="6.06536">
        <ele>332</ele>
        <time>2012-02-13T14:00:37Z</time>
      </trkpt>
      <trkpt lat="47.2464" lon="6.06538">
        <ele>331.7</ele>
        <time>2012-02-13T14:00:40Z</time>
      </trkpt>
      <trkpt lat="47.24644" lon="6.06547">
        <ele>332.4</ele>
        <time>2012-02-13T14:00:45Z</time>
      </trkpt>
      <trkpt lat="47.2465" lon="6.06552">
        <ele>331.2</ele>
        <time>2012-02-13T14:00:52Z</time>
      </trkpt>
      <trkpt lat="47.24657" lon="6.06554">
        <ele>330.7</ele>
        <time>2012-02-13T14:00:59Z</time>
      </trkpt>
      <trkpt lat="47.24663" lon="6.06555">
        <ele>330.1</ele>
        <time>2012-02-13T14:01:03Z</time>
      </trkpt>
      <trkpt lat="47.24668" lon="6.06564">
        <ele>330.5</ele>
        <time>2012-02-13T14:01:07Z</time>
      </trkpt>
      <trkpt lat="47.24673" lon="6.06569">
        <ele>331.5</ele>
        <time>2012-02-13T14:01:12Z</time>
      </trkpt>
      <trkpt lat="47.24679" lon="6.06572">
        <ele>331.5</ele>
        <time>2012-02-13T14:01:18Z</time>
      </trkpt>
      <trkpt lat="47.24685" lon="6.06578">
        <ele>330.6</ele>
        <time>2012-02-13T14:01:24Z</time>
      </trkpt>
      <trkpt lat="47.24691" lon="6.06583">
        <ele>330.1</ele>
        <time>2012-02-13T14:01:30Z</time>
      </trkpt>
      <trkpt lat="47.24696" lon="6.06589">
        <ele>329.9</ele>
        <time>2012-02-13T14:01:36Z</time>
      </trkpt>
      <trkpt lat="47.24701" lon="6.06596">
        <ele>330.7</ele>
        <time>2012-02-13T14:01:40Z</time>
      </trkpt>
      <trkpt lat="47.24707" lon="6.066">
        <ele>328.8</ele>
        <time>2012-02-13T14:01:46Z</time>
      </trkpt>
      <trkpt lat="47.24713" lon="6.06606">
        <ele>328.8</ele>
        <time>2012-02-13T14:01:52Z</time>
      </trkpt>
      <trkpt lat="47.2472" lon="6.06609">
        <ele>328.8</ele>
        <time>2012-02-13T14:01:58Z</time>
      </trkpt>
      <trkpt lat="47.24726" lon="6.06612">
        <ele>329.9</ele>
        <time>2012-02-13T14:02:02Z</time>
      </trkpt>
      <trkpt lat="47.24731" lon="6.06618">
        <ele>331</ele>
        <time>2012-02-13T14:02:07Z</time>
      </trkpt>
      <trkpt lat="47.24736" lon="6.06625">
        <ele>331.6</ele>
        <time>2012-02-13T14:02:13Z</time>
      </trkpt>
      <trkpt lat="47.24744" lon="6.06627">
        <ele>331.7</ele>
        <time>2012-02-13T14:02:18Z</time>
      </trkpt>
      <trkpt lat="47.24749" lon="6.06633">
        <ele>331.2</ele>
        <time>2012-02-13T14:02:25Z</time>
      </trkpt>
      <trkpt lat="47.24755" lon="6.06639">
        <ele>330.9</ele>
        <time>2012-02-13T14:02:30Z</time>
      </trkpt>
      <trkpt lat="47.24762" lon="6.06645">
        <ele>330.6</ele>
        <time>2012-02-13T14:02:37Z</time>
      </trkpt>
      <trkpt lat="47.24768" lon="6.06652">
        <ele>329.4</ele>
        <time>2012-02-13T14:02:41Z</time>
      </trkpt>
      <trkpt lat="47.24773" lon="6.06658">
        <ele>329.8</ele>
        <time>2012-02-13T14:02:46Z</time>
      </trkpt>
      <trkpt lat="47.24778" lon="6.06665">
        <ele>330.8</ele>
        <time>2012-02-13T14:02:51Z</time>
      </trkpt>
      <trkpt lat="47.24782" lon="6.06672">
        <ele>331.2</ele>
        <time>2012-02-13T14:02:58Z</time>
      </trkpt>
      <trkpt lat="47.24787" lon="6.06678">
        <ele>331</ele>
        <time>2012-02-13T14:03:03Z</time>
      </trkpt>
      <trkpt lat="47.24792" lon="6.06685">
        <ele>332.9</ele>
        <time>2012-02-13T14:03:09Z</time>
      </trkpt>
      <trkpt lat="47.24797" lon="6.06692">
        <ele>334.2</ele>
        <time>2012-02-13T14:03:14Z</time>
      </trkpt>
      <trkpt lat="47.24804" lon="6.06695">
        <ele>334.3</ele>
        <time>2012-02-13T14:03:21Z</time>
      </trkpt>
      <trkpt lat="47.2481" lon="6.06699">
        <ele>335</ele>
        <time>2012-02-13T14:03:25Z</time>
      </trkpt>
      <trkpt lat="47.24814" lon="6.06706">
        <ele>334.4</ele>
        <time>2012-02-13T14:03:30Z</time>
      </trkpt>
      <trkpt lat="47.24821" lon="6.0671">
        <ele>332.2</ele>
        <time>2012-02-13T14:03:36Z</time>
      </trkpt>
      <trkpt lat="47.24825" lon="6.06718">
        <ele>333.2</ele>
        <time>2012-02-13T14:03:43Z</time>
      </trkpt>
      <trkpt lat="47.24831" lon="6.06723">
        <ele>332.7</ele>
        <time>2012-02-13T14:03:47Z</time>
      </trkpt>
      <trkpt lat="47.24837" lon="6.06726">
        <ele>332.9</ele>
        <time>2012-02-13T14:03:52Z</time>
      </trkpt>
      <trkpt lat="47.24837" lon="6.06726">
        <ele>283.1</ele>
        <time>2012-02-13T14:04:04Z</time>
      </trkpt>
      <trkpt lat="47.24837" lon="6.06726">
        <ele>283.1</ele>
        <time>2012-02-13T14:04:15Z</time>
      </trkpt>
      <trkpt lat="47.24837" lon="6.06726">
        <ele>283.1</ele>
        <time>2012-02-13T14:04:26Z</time>
      </trkpt>
      <trkpt lat="47.24837" lon="6.06726">
        <ele>283.1</ele>
        <time>2012-02-13T14:04:37Z</time>
      </trkpt>
      <trkpt lat="47.24852" lon="6.06745">
        <ele>329.7</ele>
        <time>2012-02-13T14:04:40Z</time>
      </trkpt>
      <trkpt lat="47.24858" lon="6.0675">
        <ele>331</ele>
        <time>2012-02-13T14:04:45Z</time>
      </trkpt>
      <trkpt lat="47.24864" lon="6.06757">
        <ele>331</ele>
        <time>2012-02-13T14:04:50Z</time>
      </trkpt>
      <trkpt lat="47.24869" lon="6.06763">
        <ele>332.8</ele>
        <time>2012-02-13T14:04:55Z</time>
      </trkpt>
      <trkpt lat="47.24877" lon="6.06766">
        <ele>333</ele>
        <time>2012-02-13T14:05:02Z</time>
      </trkpt>
      <trkpt lat="47.24883" lon="6.0677">
        <ele>332.9</ele>
        <time>2012-02-13T14:05:07Z</time>
      </trkpt>
      <trkpt lat="47.24889" lon="6.06774">
        <ele>332.4</ele>
        <time>2012-02-13T14:05:15Z</time>
      </trkpt>
      <trkpt lat="47.24896" lon="6.06777">
        <ele>334.1</ele>
        <time>2012-02-13T14:05:20Z</time>
      </trkpt>
      <trkpt lat="47.24903" lon="6.06779">
        <ele>334.2</ele>
        <time>2012-02-13T14:05:26Z</time>
      </trkpt>
      <trkpt lat="47.2491" lon="6.06783">
        <ele>335.6</ele>
        <time>2012-02-13T14:05:31Z</time>
      </trkpt>
      <trkpt lat="47.24916" lon="6.06789">
        <ele>335.2</ele>
        <time>2012-02-13T14:05:38Z</time>
      </trkpt>
      <trkpt lat="47.24923" lon="6.0679">
        <ele>335.2</ele>
        <time>2012-02-13T14:05:44Z</time>
      </trkpt>
      <trkpt lat="47.24929" lon="6.06794">
        <ele>333.9</ele>
        <time>2012-02-13T14:05:50Z</time>
      </trkpt>
      <trkpt lat="47.24936" lon="6.068">
        <ele>334.5</ele>
        <time>2012-02-13T14:05:54Z</time>
      </trkpt>
      <trkpt lat="47.24942" lon="6.06805">
        <ele>334</ele>
        <time>2012-02-13T14:05:59Z</time>
      </trkpt>
      <trkpt lat="47.24949" lon="6.06807">
        <ele>335</ele>
        <time>2012-02-13T14:06:04Z</time>
      </trkpt>
      <trkpt lat="47.24956" lon="6.06809">
        <ele>334.7</ele>
        <time>2012-02-13T14:06:12Z</time>
      </trkpt>
      <trkpt lat="47.24956" lon="6.06809">
        <ele>283.6</ele>
        <time>2012-02-13T14:06:23Z</time>
      </trkpt>
      <trkpt lat="47.24956" lon="6.06809">
        <ele>283.6</ele>
        <time>2012-02-13T14:06:50Z</time>
      </trkpt>
      <trkpt lat="47.24956" lon="6.06809">
        <ele>283.6</ele>
        <time>2012-02-13T14:07:01Z</time>
      </trkpt>
      <trkpt lat="47.24956" lon="6.06809">
        <ele>283.6</ele>
        <time>2012-02-13T14:07:02Z</time>
      </trkpt>
      <trkpt lat="47.24971" lon="6.06821">
        <ele>332.2</ele>
        <time>2012-02-13T14:07:06Z</time>
      </trkpt>
      <trkpt lat="47.24976" lon="6.06826">
        <ele>331.8</ele>
        <time>2012-02-13T14:07:12Z</time>
      </trkpt>
      <trkpt lat="47.24983" lon="6.0683">
        <ele>331.4</ele>
        <time>2012-02-13T14:07:18Z</time>
      </trkpt>
      <trkpt lat="47.2499" lon="6.06832">
        <ele>331.5</ele>
        <time>2012-02-13T14:07:24Z</time>
      </trkpt>
      <trkpt lat="47.24995" lon="6.06838">
        <ele>331.9</ele>
        <time>2012-02-13T14:07:29Z</time>
      </trkpt>
      <trkpt lat="47.25002" lon="6.0684">
        <ele>331.2</ele>
        <time>2012-02-13T14:07:35Z</time>
      </trkpt>
      <trkpt lat="47.25002" lon="6.0684">
        <ele>283.6</ele>
        <time>2012-02-13T14:07:47Z</time>
      </trkpt>
      <trkpt lat="47.25002" lon="6.0684">
        <ele>283.6</ele>
        <time>2012-02-13T14:07:57Z</time>
      </trkpt>
      <trkpt lat="47.25014" lon="6.0685">
        <ele>329.4</ele>
        <time>2012-02-13T14:08:05Z</time>
      </trkpt>
      <trkpt lat="47.2502" lon="6.06855">
        <ele>331.3</ele>
        <time>2012-02-13T14:08:10Z</time>
      </trkpt>
      <trkpt lat="47.25026" lon="6.06861">
        <ele>333.7</ele>
        <time>2012-02-13T14:08:15Z</time>
      </trkpt>
      <trkpt lat="47.25033" lon="6.06864">
        <ele>333.7</ele>
        <time>2012-02-13T14:08:20Z</time>
      </trkpt>
      <trkpt lat="47.25039" lon="6.06869">
        <ele>334.5</ele>
        <time>2012-02-13T14:08:28Z</time>
      </trkpt>
      <trkpt lat="47.25039" lon="6.06869">
        <ele>283.8</ele>
        <time>2012-02-13T14:08:40Z</time>
      </trkpt>
      <trkpt lat="47.25039" lon="6.06869">
        <ele>283.8</ele>
        <time>2012-02-13T14:08:46Z</time>
      </trkpt>
      <trkpt lat="47.25039" lon="6.06869">
        <ele>283.8</ele>
        <time>2012-02-13T14:08:57Z</time>
      </trkpt>
      <trkpt lat="47.25039" lon="6.06869">
        <ele>283.8</ele>
        <time>2012-02-13T14:08:58Z</time>
      </trkpt>
      <trkpt lat="47.25059" lon="6.0688">
        <ele>333.8</ele>
        <time>2012-02-13T14:09:03Z</time>
      </trkpt>
      <trkpt lat="47.25065" lon="6.06883">
        <ele>333.5</ele>
        <time>2012-02-13T14:09:08Z</time>
      </trkpt>
      <trkpt lat="47.25071" lon="6.06887">
        <ele>335</ele>
        <time>2012-02-13T14:09:13Z</time>
      </trkpt>
      <trkpt lat="47.25077" lon="6.06892">
        <ele>335.3</ele>
        <time>2012-02-13T14:09:22Z</time>
      </trkpt>
      <trkpt lat="47.25083" lon="6.06893">
        <ele>334.9</ele>
        <time>2012-02-13T14:09:28Z</time>
      </trkpt>
      <trkpt lat="47.2509" lon="6.06896">
        <ele>334.2</ele>
        <time>2012-02-13T14:09:33Z</time>
      </trkpt>
      <trkpt lat="47.25096" lon="6.06898">
        <ele>334.2</ele>
        <time>2012-02-13T14:09:38Z</time>
      </trkpt>
      <trkpt lat="47.25104" lon="6.06898">
        <ele>334.9</ele>
        <time>2012-02-13T14:09:45Z</time>
      </trkpt>
      <trkpt lat="47.25104" lon="6.06898">
        <ele>285</ele>
        <time>2012-02-13T14:09:56Z</time>
      </trkpt>
      <trkpt lat="47.25104" lon="6.06898">
        <ele>285</ele>
        <time>2012-02-13T14:10:18Z</time>
      </trkpt>
      <trkpt lat="47.25116" lon="6.06909">
        <ele>330.6</ele>
        <time>2012-02-13T14:10:22Z</time>
      </trkpt>
      <trkpt lat="47.25123" lon="6.06912">
        <ele>332.3</ele>
        <time>2012-02-13T14:10:27Z</time>
      </trkpt>
      <trkpt lat="47.2513" lon="6.06907">
        <ele>332.6</ele>
        <time>2012-02-13T14:10:32Z</time>
      </trkpt>
      <trkpt lat="47.25135" lon="6.06901">
        <ele>333.6</ele>
        <time>2012-02-13T14:10:39Z</time>
      </trkpt>
      <trkpt lat="47.25139" lon="6.06893">
        <ele>332.6</ele>
        <time>2012-02-13T14:10:46Z</time>
      </trkpt>
      <trkpt lat="47.25141" lon="6.06883">
        <ele>330.6</ele>
        <time>2012-02-13T14:10:52Z</time>
      </trkpt>
      <trkpt lat="47.25147" lon="6.0688">
        <ele>330.7</ele>
        <time>2012-02-13T14:10:56Z</time>
      </trkpt>
      <trkpt lat="47.25153" lon="6.06876">
        <ele>330.9</ele>
        <time>2012-02-13T14:11:02Z</time>
      </trkpt>
      <trkpt lat="47.25153" lon="6.06876">
        <ele>287.4</ele>
        <time>2012-02-13T14:11:13Z</time>
      </trkpt>
      <trkpt lat="47.25153" lon="6.06876">
        <ele>287.4</ele>
        <time>2012-02-13T14:11:38Z</time>
      </trkpt>
      <trkpt lat="47.25164" lon="6.0688">
        <ele>335.8</ele>
        <time>2012-02-13T14:11:46Z</time>
      </trkpt>
      <trkpt lat="47.25169" lon="6.06887">
        <ele>335.2</ele>
        <time>2012-02-13T14:11:52Z</time>
      </trkpt>
      <trkpt lat="47.25175" lon="6.06891">
        <ele>336.8</ele>
        <time>2012-02-13T14:11:55Z</time>
      </trkpt>
      <trkpt lat="47.25181" lon="6.06897">
        <ele>336.5</ele>
        <time>2012-02-13T14:12:02Z</time>
      </trkpt>
      <trkpt lat="47.25181" lon="6.06897">
        <ele>285.8</ele>
        <time>2012-02-13T14:12:13Z</time>
      </trkpt>
      <trkpt lat="47.25181" lon="6.06897">
        <ele>285.8</ele>
        <time>2012-02-13T14:12:15Z</time>
      </trkpt>
      <trkpt lat="47.25194" lon="6.06901">
        <ele>334.4</ele>
        <time>2012-02-13T14:12:21Z</time>
      </trkpt>
      <trkpt lat="47.252" lon="6.06908">
        <ele>334.9</ele>
        <time>2012-02-13T14:12:27Z</time>
      </trkpt>
      <trkpt lat="47.25204" lon="6.06915">
        <ele>335</ele>
        <time>2012-02-13T14:12:31Z</time>
      </trkpt>
      <trkpt lat="47.25206" lon="6.06925">
        <ele>334.4</ele>
        <time>2012-02-13T14:12:35Z</time>
      </trkpt>
      <trkpt lat="47.25212" lon="6.06925">
        <ele>335.8</ele>
        <time>2012-02-13T14:12:39Z</time>
      </trkpt>
      <trkpt lat="47.25219" lon="6.06932">
        <ele>336.8</ele>
        <time>2012-02-13T14:12:46Z</time>
      </trkpt>
      <trkpt lat="47.25224" lon="6.06939">
        <ele>337.4</ele>
        <time>2012-02-13T14:12:51Z</time>
      </trkpt>
      <trkpt lat="47.25229" lon="6.06945">
        <ele>337.1</ele>
        <time>2012-02-13T14:12:57Z</time>
      </trkpt>
      <trkpt lat="47.25236" lon="6.06948">
        <ele>335.8</ele>
        <time>2012-02-13T14:13:02Z</time>
      </trkpt>
      <trkpt lat="47.2524" lon="6.06955">
        <ele>336.2</ele>
        <time>2012-02-13T14:13:07Z</time>
      </trkpt>
      <trkpt lat="47.25245" lon="6.06962">
        <ele>337.4</ele>
        <time>2012-02-13T14:13:14Z</time>
      </trkpt>
      <trkpt lat="47.2525" lon="6.06967">
        <ele>337.9</ele>
        <time>2012-02-13T14:13:21Z</time>
      </trkpt>
      <trkpt lat="47.25257" lon="6.06971">
        <ele>336.7</ele>
        <time>2012-02-13T14:13:26Z</time>
      </trkpt>
      <trkpt lat="47.25263" lon="6.06976">
        <ele>335.9</ele>
        <time>2012-02-13T14:13:33Z</time>
      </trkpt>
      <trkpt lat="47.25269" lon="6.0698">
        <ele>335.5</ele>
        <time>2012-02-13T14:13:38Z</time>
      </trkpt>
      <trkpt lat="47.25275" lon="6.06982">
        <ele>333.5</ele>
        <time>2012-02-13T14:13:45Z</time>
      </trkpt>
      <trkpt lat="47.2528" lon="6.06992">
        <ele>334.4</ele>
        <time>2012-02-13T14:13:50Z</time>
      </trkpt>
      <trkpt lat="47.25285" lon="6.06996">
        <ele>333.2</ele>
        <time>2012-02-13T14:13:55Z</time>
      </trkpt>
      <trkpt lat="47.25293" lon="6.07001">
        <ele>334.3</ele>
        <time>2012-02-13T14:14:02Z</time>
      </trkpt>
      <trkpt lat="47.25299" lon="6.07008">
        <ele>335.4</ele>
        <time>2012-02-13T14:14:08Z</time>
      </trkpt>
      <trkpt lat="47.25305" lon="6.07011">
        <ele>337.1</ele>
        <time>2012-02-13T14:14:14Z</time>
      </trkpt>
      <trkpt lat="47.2531" lon="6.07016">
        <ele>336.3</ele>
        <time>2012-02-13T14:14:20Z</time>
      </trkpt>
      <trkpt lat="47.25317" lon="6.07021">
        <ele>337.1</ele>
        <time>2012-02-13T14:14:26Z</time>
      </trkpt>
      <trkpt lat="47.25323" lon="6.07027">
        <ele>337.3</ele>
        <time>2012-02-13T14:14:31Z</time>
      </trkpt>
      <trkpt lat="47.25328" lon="6.07032">
        <ele>336.8</ele>
        <time>2012-02-13T14:14:42Z</time>
      </trkpt>
      <trkpt lat="47.25334" lon="6.07037">
        <ele>335.7</ele>
        <time>2012-02-13T14:14:49Z</time>
      </trkpt>
      <trkpt lat="47.2534" lon="6.07042">
        <ele>336.1</ele>
        <time>2012-02-13T14:14:52Z</time>
      </trkpt>
      <trkpt lat="47.25345" lon="6.07049">
        <ele>336.8</ele>
        <time>2012-02-13T14:14:58Z</time>
      </trkpt>
      <trkpt lat="47.25351" lon="6.07055">
        <ele>336.6</ele>
        <time>2012-02-13T14:15:04Z</time>
      </trkpt>
      <trkpt lat="47.25355" lon="6.07062">
        <ele>337.1</ele>
        <time>2012-02-13T14:15:10Z</time>
      </trkpt>
      <trkpt lat="47.2536" lon="6.07069">
        <ele>337.4</ele>
        <time>2012-02-13T14:15:18Z</time>
      </trkpt>
      <trkpt lat="47.25367" lon="6.07074">
        <ele>336.3</ele>
        <time>2012-02-13T14:15:24Z</time>
      </trkpt>
      <trkpt lat="47.25372" lon="6.07081">
        <ele>337.4</ele>
        <time>2012-02-13T14:15:28Z</time>
      </trkpt>
      <trkpt lat="47.25376" lon="6.07089">
        <ele>337.4</ele>
        <time>2012-02-13T14:15:35Z</time>
      </trkpt>
      <trkpt lat="47.25381" lon="6.07096">
        <ele>337.8</ele>
        <time>2012-02-13T14:15:39Z</time>
      </trkpt>
      <trkpt lat="47.25386" lon="6.07102">
        <ele>337.2</ele>
        <time>2012-02-13T14:15:46Z</time>
      </trkpt>
      <trkpt lat="47.25391" lon="6.07109">
        <ele>336.2</ele>
        <time>2012-02-13T14:15:50Z</time>
      </trkpt>
      <trkpt lat="47.25393" lon="6.07118">
        <ele>336</ele>
        <time>2012-02-13T14:15:55Z</time>
      </trkpt>
      <trkpt lat="47.25399" lon="6.07122">
        <ele>334.7</ele>
        <time>2012-02-13T14:16:02Z</time>
      </trkpt>
      <trkpt lat="47.25403" lon="6.07131">
        <ele>334.8</ele>
        <time>2012-02-13T14:16:07Z</time>
      </trkpt>
      <trkpt lat="47.25406" lon="6.07139">
        <ele>335</ele>
        <time>2012-02-13T14:16:12Z</time>
      </trkpt>
      <trkpt lat="47.25412" lon="6.07147">
        <ele>335</ele>
        <time>2012-02-13T14:16:17Z</time>
      </trkpt>
      <trkpt lat="47.25418" lon="6.07151">
        <ele>334.4</ele>
        <time>2012-02-13T14:16:22Z</time>
      </trkpt>
      <trkpt lat="47.25419" lon="6.0716">
        <ele>334.9</ele>
        <time>2012-02-13T14:16:27Z</time>
      </trkpt>
      <trkpt lat="47.25425" lon="6.07169">
        <ele>335.1</ele>
        <time>2012-02-13T14:16:34Z</time>
      </trkpt>
      <trkpt lat="47.2543" lon="6.07175">
        <ele>332.5</ele>
        <time>2012-02-13T14:16:40Z</time>
      </trkpt>
      <trkpt lat="47.25435" lon="6.07179">
        <ele>333.6</ele>
        <time>2012-02-13T14:16:45Z</time>
      </trkpt>
      <trkpt lat="47.25441" lon="6.07187">
        <ele>333.2</ele>
        <time>2012-02-13T14:16:52Z</time>
      </trkpt>
      <trkpt lat="47.25446" lon="6.07195">
        <ele>332.2</ele>
        <time>2012-02-13T14:16:57Z</time>
      </trkpt>
      <trkpt lat="47.25454" lon="6.07196">
        <ele>332.1</ele>
        <time>2012-02-13T14:17:02Z</time>
      </trkpt>
      <trkpt lat="47.25459" lon="6.07206">
        <ele>330.8</ele>
        <time>2012-02-13T14:17:09Z</time>
      </trkpt>
      <trkpt lat="47.25465" lon="6.0721">
        <ele>329.5</ele>
        <time>2012-02-13T14:17:17Z</time>
      </trkpt>
      <trkpt lat="47.25471" lon="6.07214">
        <ele>329.7</ele>
        <time>2012-02-13T14:17:22Z</time>
      </trkpt>
      <trkpt lat="47.25474" lon="6.07222">
        <ele>328.1</ele>
        <time>2012-02-13T14:17:26Z</time>
      </trkpt>
      <trkpt lat="47.25481" lon="6.07223">
        <ele>325.9</ele>
        <time>2012-02-13T14:17:32Z</time>
      </trkpt>
      <trkpt lat="47.25488" lon="6.07228">
        <ele>326.2</ele>
        <time>2012-02-13T14:17:39Z</time>
      </trkpt>
      <trkpt lat="47.25494" lon="6.07235">
        <ele>325</ele>
        <time>2012-02-13T14:17:46Z</time>
      </trkpt>
      <trkpt lat="47.25499" lon="6.07241">
        <ele>325.8</ele>
        <time>2012-02-13T14:17:51Z</time>
      </trkpt>
      <trkpt lat="47.25504" lon="6.07247">
        <ele>324.9</ele>
        <time>2012-02-13T14:17:56Z</time>
      </trkpt>
      <trkpt lat="47.2551" lon="6.07255">
        <ele>324.1</ele>
        <time>2012-02-13T14:18:02Z</time>
      </trkpt>
      <trkpt lat="47.25517" lon="6.07258">
        <ele>323.1</ele>
        <time>2012-02-13T14:18:08Z</time>
      </trkpt>
      <trkpt lat="47.25522" lon="6.07265">
        <ele>324.9</ele>
        <time>2012-02-13T14:18:11Z</time>
      </trkpt>
      <trkpt lat="47.25528" lon="6.07271">
        <ele>325.3</ele>
        <time>2012-02-13T14:18:16Z</time>
      </trkpt>
      <trkpt lat="47.25533" lon="6.07277">
        <ele>324.4</ele>
        <time>2012-02-13T14:18:22Z</time>
      </trkpt>
      <trkpt lat="47.25539" lon="6.07282">
        <ele>323.2</ele>
        <time>2012-02-13T14:18:27Z</time>
      </trkpt>
      <trkpt lat="47.25545" lon="6.07287">
        <ele>324</ele>
        <time>2012-02-13T14:18:33Z</time>
      </trkpt>
      <trkpt lat="47.25549" lon="6.07295">
        <ele>324.7</ele>
        <time>2012-02-13T14:18:39Z</time>
      </trkpt>
      <trkpt lat="47.25556" lon="6.07299">
        <ele>325.1</ele>
        <time>2012-02-13T14:18:46Z</time>
      </trkpt>
      <trkpt lat="47.2556" lon="6.07308">
        <ele>325.2</ele>
        <time>2012-02-13T14:18:54Z</time>
      </trkpt>
      <trkpt lat="47.25565" lon="6.07313">
        <ele>324.1</ele>
        <time>2012-02-13T14:19:01Z</time>
      </trkpt>
      <trkpt lat="47.25569" lon="6.07321">
        <ele>324.9</ele>
        <time>2012-02-13T14:19:07Z</time>
      </trkpt>
      <trkpt lat="47.25569" lon="6.07321">
        <ele>276.4</ele>
        <time>2012-02-13T14:19:19Z</time>
      </trkpt>
      <trkpt lat="47.25569" lon="6.07321">
        <ele>276.4</ele>
        <time>2012-02-13T14:21:20Z</time>
      </trkpt>
      <trkpt lat="47.25575" lon="6.07339">
        <ele>322.7</ele>
        <time>2012-02-13T14:21:24Z</time>
      </trkpt>
      <trkpt lat="47.25574" lon="6.07351">
        <ele>320.9</ele>
        <time>2012-02-13T14:21:30Z</time>
      </trkpt>
      <trkpt lat="47.25577" lon="6.0736">
        <ele>322.4</ele>
        <time>2012-02-13T14:21:37Z</time>
      </trkpt>
      <trkpt lat="47.25574" lon="6.07368">
        <ele>322.3</ele>
        <time>2012-02-13T14:21:42Z</time>
      </trkpt>
      <trkpt lat="47.25573" lon="6.07378">
        <ele>321</ele>
        <time>2012-02-13T14:21:47Z</time>
      </trkpt>
      <trkpt lat="47.25576" lon="6.07387">
        <ele>322.4</ele>
        <time>2012-02-13T14:21:54Z</time>
      </trkpt>
      <trkpt lat="47.25577" lon="6.07397">
        <ele>321.7</ele>
        <time>2012-02-13T14:22:00Z</time>
      </trkpt>
      <trkpt lat="47.25581" lon="6.07405">
        <ele>322.2</ele>
        <time>2012-02-13T14:22:07Z</time>
      </trkpt>
      <trkpt lat="47.25582" lon="6.07415">
        <ele>321</ele>
        <time>2012-02-13T14:22:14Z</time>
      </trkpt>
      <trkpt lat="47.25584" lon="6.07424">
        <ele>318.4</ele>
        <time>2012-02-13T14:22:22Z</time>
      </trkpt>
      <trkpt lat="47.25583" lon="6.07435">
        <ele>317.7</ele>
        <time>2012-02-13T14:22:27Z</time>
      </trkpt>
      <trkpt lat="47.25584" lon="6.07445">
        <ele>316.8</ele>
        <time>2012-02-13T14:22:33Z</time>
      </trkpt>
      <trkpt lat="47.25591" lon="6.07453">
        <ele>317.5</ele>
        <time>2012-02-13T14:22:40Z</time>
      </trkpt>
      <trkpt lat="47.25593" lon="6.07464">
        <ele>316.8</ele>
        <time>2012-02-13T14:22:47Z</time>
      </trkpt>
      <trkpt lat="47.25598" lon="6.07472">
        <ele>316.6</ele>
        <time>2012-02-13T14:22:52Z</time>
      </trkpt>
      <trkpt lat="47.25602" lon="6.0748">
        <ele>315.9</ele>
        <time>2012-02-13T14:22:58Z</time>
      </trkpt>
      <trkpt lat="47.25607" lon="6.07486">
        <ele>315.5</ele>
        <time>2012-02-13T14:23:04Z</time>
      </trkpt>
      <trkpt lat="47.2561" lon="6.07496">
        <ele>315.6</ele>
        <time>2012-02-13T14:23:12Z</time>
      </trkpt>
      <trkpt lat="47.25613" lon="6.07503">
        <ele>316.7</ele>
        <time>2012-02-13T14:23:17Z</time>
      </trkpt>
      <trkpt lat="47.25616" lon="6.07513">
        <ele>316</ele>
        <time>2012-02-13T14:23:23Z</time>
      </trkpt>
      <trkpt lat="47.2562" lon="6.07522">
        <ele>315.2</ele>
        <time>2012-02-13T14:23:28Z</time>
      </trkpt>
      <trkpt lat="47.25626" lon="6.07528">
        <ele>313.2</ele>
        <time>2012-02-13T14:23:34Z</time>
      </trkpt>
      <trkpt lat="47.2563" lon="6.07535">
        <ele>311.2</ele>
        <time>2012-02-13T14:23:40Z</time>
      </trkpt>
      <trkpt lat="47.2563" lon="6.07544">
        <ele>309.2</ele>
        <time>2012-02-13T14:23:44Z</time>
      </trkpt>
      <trkpt lat="47.25639" lon="6.07548">
        <ele>308.8</ele>
        <time>2012-02-13T14:23:52Z</time>
      </trkpt>
      <trkpt lat="47.25644" lon="6.07553">
        <ele>310</ele>
        <time>2012-02-13T14:23:57Z</time>
      </trkpt>
      <trkpt lat="47.25645" lon="6.07563">
        <ele>309.2</ele>
        <time>2012-02-13T14:24:06Z</time>
      </trkpt>
      <trkpt lat="47.2565" lon="6.07571">
        <ele>309</ele>
        <time>2012-02-13T14:24:09Z</time>
      </trkpt>
      <trkpt lat="47.25653" lon="6.0758">
        <ele>305.9</ele>
        <time>2012-02-13T14:24:15Z</time>
      </trkpt>
      <trkpt lat="47.25661" lon="6.07583">
        <ele>307.1</ele>
        <time>2012-02-13T14:24:20Z</time>
      </trkpt>
      <trkpt lat="47.25667" lon="6.0759">
        <ele>308.1</ele>
        <time>2012-02-13T14:24:28Z</time>
      </trkpt>
      <trkpt lat="47.25673" lon="6.07595">
        <ele>307.7</ele>
        <time>2012-02-13T14:24:34Z</time>
      </trkpt>
      <trkpt lat="47.2568" lon="6.07598">
        <ele>305.2</ele>
        <time>2012-02-13T14:24:41Z</time>
      </trkpt>
      <trkpt lat="47.25686" lon="6.076">
        <ele>305.1</ele>
        <time>2012-02-13T14:24:47Z</time>
      </trkpt>
      <trkpt lat="47.25692" lon="6.07605">
        <ele>305.2</ele>
        <time>2012-02-13T14:24:52Z</time>
      </trkpt>
      <trkpt lat="47.25699" lon="6.07609">
        <ele>305.4</ele>
        <time>2012-02-13T14:24:59Z</time>
      </trkpt>
      <trkpt lat="47.25704" lon="6.07618">
        <ele>305.3</ele>
        <time>2012-02-13T14:25:07Z</time>
      </trkpt>
      <trkpt lat="47.2571" lon="6.0762">
        <ele>304.6</ele>
        <time>2012-02-13T14:25:12Z</time>
      </trkpt>
      <trkpt lat="47.25716" lon="6.07616">
        <ele>305</ele>
        <time>2012-02-13T14:25:16Z</time>
      </trkpt>
      <trkpt lat="47.25724" lon="6.07619">
        <ele>304.5</ele>
        <time>2012-02-13T14:25:22Z</time>
      </trkpt>
      <trkpt lat="47.25726" lon="6.07628">
        <ele>304.7</ele>
        <time>2012-02-13T14:25:29Z</time>
      </trkpt>
      <trkpt lat="47.25731" lon="6.07635">
        <ele>303.9</ele>
        <time>2012-02-13T14:25:36Z</time>
      </trkpt>
      <trkpt lat="47.25735" lon="6.07642">
        <ele>303.6</ele>
        <time>2012-02-13T14:25:41Z</time>
      </trkpt>
      <trkpt lat="47.25742" lon="6.0764">
        <ele>303.6</ele>
        <time>2012-02-13T14:25:46Z</time>
      </trkpt>
      <trkpt lat="47.25747" lon="6.07646">
        <ele>304.8</ele>
        <time>2012-02-13T14:25:50Z</time>
      </trkpt>
      <trkpt lat="47.25754" lon="6.07646">
        <ele>307.1</ele>
        <time>2012-02-13T14:25:54Z</time>
      </trkpt>
      <trkpt lat="47.25761" lon="6.07649">
        <ele>305.2</ele>
        <time>2012-02-13T14:26:00Z</time>
      </trkpt>
      <trkpt lat="47.25765" lon="6.07656">
        <ele>305.8</ele>
        <time>2012-02-13T14:26:09Z</time>
      </trkpt>
      <trkpt lat="47.25771" lon="6.07661">
        <ele>304.1</ele>
        <time>2012-02-13T14:26:15Z</time>
      </trkpt>
      <trkpt lat="47.25778" lon="6.07662">
        <ele>302.8</ele>
        <time>2012-02-13T14:26:23Z</time>
      </trkpt>
      <trkpt lat="47.25784" lon="6.07666">
        <ele>302.3</ele>
        <time>2012-02-13T14:26:29Z</time>
      </trkpt>
      <trkpt lat="47.2579" lon="6.07666">
        <ele>301.7</ele>
        <time>2012-02-13T14:26:33Z</time>
      </trkpt>
      <trkpt lat="47.25797" lon="6.0767">
        <ele>300.3</ele>
        <time>2012-02-13T14:26:43Z</time>
      </trkpt>
      <trkpt lat="47.25804" lon="6.07669">
        <ele>301.3</ele>
        <time>2012-02-13T14:26:47Z</time>
      </trkpt>
      <trkpt lat="47.2581" lon="6.07667">
        <ele>299.5</ele>
        <time>2012-02-13T14:26:53Z</time>
      </trkpt>
      <trkpt lat="47.25816" lon="6.07662">
        <ele>297</ele>
        <time>2012-02-13T14:26:58Z</time>
      </trkpt>
      <trkpt lat="47.25823" lon="6.0766">
        <ele>295.8</ele>
        <time>2012-02-13T14:27:03Z</time>
      </trkpt>
      <trkpt lat="47.25827" lon="6.0765">
        <ele>296.8</ele>
        <time>2012-02-13T14:27:09Z</time>
      </trkpt>
      <trkpt lat="47.25827" lon="6.0764">
        <ele>299</ele>
        <time>2012-02-13T14:27:13Z</time>
      </trkpt>
      <trkpt lat="47.25833" lon="6.07635">
        <ele>298</ele>
        <time>2012-02-13T14:27:21Z</time>
      </trkpt>
      <trkpt lat="47.25837" lon="6.07627">
        <ele>296</ele>
        <time>2012-02-13T14:27:29Z</time>
      </trkpt>
      <trkpt lat="47.25842" lon="6.0762">
        <ele>292.6</ele>
        <time>2012-02-13T14:27:34Z</time>
      </trkpt>
      <trkpt lat="47.25846" lon="6.07612">
        <ele>290.9</ele>
        <time>2012-02-13T14:27:42Z</time>
      </trkpt>
      <trkpt lat="47.2585" lon="6.07603">
        <ele>291.5</ele>
        <time>2012-02-13T14:27:48Z</time>
      </trkpt>
      <trkpt lat="47.25851" lon="6.07593">
        <ele>292.2</ele>
        <time>2012-02-13T14:27:54Z</time>
      </trkpt>
      <trkpt lat="47.25852" lon="6.07584">
        <ele>293.1</ele>
        <time>2012-02-13T14:28:00Z</time>
      </trkpt>
      <trkpt lat="47.25857" lon="6.07576">
        <ele>294</ele>
        <time>2012-02-13T14:28:06Z</time>
      </trkpt>
      <trkpt lat="47.2586" lon="6.07568">
        <ele>294.7</ele>
        <time>2012-02-13T14:28:11Z</time>
      </trkpt>
      <trkpt lat="47.25863" lon="6.07559">
        <ele>296.1</ele>
        <time>2012-02-13T14:28:18Z</time>
      </trkpt>
      <trkpt lat="47.25863" lon="6.07559">
        <ele>253.8</ele>
        <time>2012-02-13T14:28:30Z</time>
      </trkpt>
      <trkpt lat="47.25863" lon="6.07559">
        <ele>253.8</ele>
        <time>2012-02-13T14:28:31Z</time>
      </trkpt>
      <trkpt lat="47.25875" lon="6.07566">
        <ele>295</ele>
        <time>2012-02-13T14:28:37Z</time>
      </trkpt>
      <trkpt lat="47.25875" lon="6.07566">
        <ele>253.3</ele>
        <time>2012-02-13T14:28:48Z</time>
      </trkpt>
      <trkpt lat="47.25875" lon="6.07566">
        <ele>253.3</ele>
        <time>2012-02-13T14:28:58Z</time>
      </trkpt>
      <trkpt lat="47.25875" lon="6.07566">
        <ele>253.3</ele>
        <time>2012-02-13T14:29:10Z</time>
      </trkpt>
      <trkpt lat="47.25875" lon="6.07566">
        <ele>253.3</ele>
        <time>2012-02-13T14:29:57Z</time>
      </trkpt>
      <trkpt lat="47.25858" lon="6.07566">
        <ele>300.5</ele>
        <time>2012-02-13T14:30:00Z</time>
      </trkpt>
      <trkpt lat="47.25858" lon="6.07566">
        <ele>253.7</ele>
        <time>2012-02-13T14:30:12Z</time>
      </trkpt>
      <trkpt lat="47.25858" lon="6.07566">
        <ele>253.7</ele>
        <time>2012-02-13T14:31:04Z</time>
      </trkpt>
      <trkpt lat="47.25849" lon="6.07553">
        <ele>297</ele>
        <time>2012-02-13T14:31:07Z</time>
      </trkpt>
      <trkpt lat="47.25848" lon="6.07544">
        <ele>295</ele>
        <time>2012-02-13T14:31:14Z</time>
      </trkpt>
      <trkpt lat="47.25841" lon="6.07539">
        <ele>296.9</ele>
        <time>2012-02-13T14:31:20Z</time>
      </trkpt>
      <trkpt lat="47.25835" lon="6.07536">
        <ele>296.2</ele>
        <time>2012-02-13T14:31:25Z</time>
      </trkpt>
      <trkpt lat="47.25829" lon="6.07531">
        <ele>297.7</ele>
        <time>2012-02-13T14:31:31Z</time>
      </trkpt>
      <trkpt lat="47.25823" lon="6.07525">
        <ele>298.7</ele>
        <time>2012-02-13T14:31:39Z</time>
      </trkpt>
      <trkpt lat="47.25819" lon="6.07517">
        <ele>300.1</ele>
        <time>2012-02-13T14:31:46Z</time>
      </trkpt>
      <trkpt lat="47.25814" lon="6.07511">
        <ele>299.4</ele>
        <time>2012-02-13T14:31:53Z</time>
      </trkpt>
      <trkpt lat="47.25808" lon="6.07506">
        <ele>300.4</ele>
        <time>2012-02-13T14:31:59Z</time>
      </trkpt>
      <trkpt lat="47.25803" lon="6.07499">
        <ele>302.8</ele>
        <time>2012-02-13T14:32:08Z</time>
      </trkpt>
      <trkpt lat="47.25796" lon="6.07494">
        <ele>303.8</ele>
        <time>2012-02-13T14:32:14Z</time>
      </trkpt>
      <trkpt lat="47.25795" lon="6.07485">
        <ele>304.4</ele>
        <time>2012-02-13T14:32:21Z</time>
      </trkpt>
      <trkpt lat="47.2579" lon="6.07479">
        <ele>306.3</ele>
        <time>2012-02-13T14:32:28Z</time>
      </trkpt>
      <trkpt lat="47.25785" lon="6.07472">
        <ele>309</ele>
        <time>2012-02-13T14:32:35Z</time>
      </trkpt>
      <trkpt lat="47.25785" lon="6.07472">
        <ele>263.5</ele>
        <time>2012-02-13T14:32:47Z</time>
      </trkpt>
      <trkpt lat="47.25785" lon="6.07472">
        <ele>263.5</ele>
        <time>2012-02-13T14:32:48Z</time>
      </trkpt>
      <trkpt lat="47.25779" lon="6.07454">
        <ele>306.9</ele>
        <time>2012-02-13T14:32:54Z</time>
      </trkpt>
      <trkpt lat="47.25775" lon="6.07446">
        <ele>309.7</ele>
        <time>2012-02-13T14:33:04Z</time>
      </trkpt>
      <trkpt lat="47.25773" lon="6.07437">
        <ele>311.9</ele>
        <time>2012-02-13T14:33:10Z</time>
      </trkpt>
      <trkpt lat="47.25775" lon="6.07426">
        <ele>311.2</ele>
        <time>2012-02-13T14:33:15Z</time>
      </trkpt>
      <trkpt lat="47.25771" lon="6.07416">
        <ele>311</ele>
        <time>2012-02-13T14:33:22Z</time>
      </trkpt>
      <trkpt lat="47.25766" lon="6.0741">
        <ele>310.7</ele>
        <time>2012-02-13T14:33:32Z</time>
      </trkpt>
      <trkpt lat="47.25761" lon="6.07404">
        <ele>308.2</ele>
        <time>2012-02-13T14:33:39Z</time>
      </trkpt>
      <trkpt lat="47.25755" lon="6.07398">
        <ele>308.3</ele>
        <time>2012-02-13T14:33:48Z</time>
      </trkpt>
      <trkpt lat="47.2575" lon="6.07391">
        <ele>307.6</ele>
        <time>2012-02-13T14:33:55Z</time>
      </trkpt>
      <trkpt lat="47.25743" lon="6.07386">
        <ele>309.8</ele>
        <time>2012-02-13T14:34:02Z</time>
      </trkpt>
      <trkpt lat="47.25741" lon="6.07376">
        <ele>309.3</ele>
        <time>2012-02-13T14:34:09Z</time>
      </trkpt>
      <trkpt lat="47.25735" lon="6.07373">
        <ele>310.5</ele>
        <time>2012-02-13T14:34:16Z</time>
      </trkpt>
      <trkpt lat="47.2573" lon="6.07366">
        <ele>309.8</ele>
        <time>2012-02-13T14:34:21Z</time>
      </trkpt>
      <trkpt lat="47.25725" lon="6.07361">
        <ele>310.8</ele>
        <time>2012-02-13T14:34:29Z</time>
      </trkpt>
      <trkpt lat="47.2572" lon="6.07355">
        <ele>312.4</ele>
        <time>2012-02-13T14:34:35Z</time>
      </trkpt>
      <trkpt lat="47.25713" lon="6.0735">
        <ele>313.5</ele>
        <time>2012-02-13T14:34:43Z</time>
      </trkpt>
      <trkpt lat="47.25709" lon="6.07342">
        <ele>315.9</ele>
        <time>2012-02-13T14:34:53Z</time>
      </trkpt>
      <trkpt lat="47.25704" lon="6.07335">
        <ele>315.8</ele>
        <time>2012-02-13T14:34:58Z</time>
      </trkpt>
      <trkpt lat="47.25699" lon="6.07328">
        <ele>317.9</ele>
        <time>2012-02-13T14:35:06Z</time>
      </trkpt>
      <trkpt lat="47.25694" lon="6.0732">
        <ele>316.8</ele>
        <time>2012-02-13T14:35:12Z</time>
      </trkpt>
      <trkpt lat="47.25691" lon="6.0731">
        <ele>317.1</ele>
        <time>2012-02-13T14:35:20Z</time>
      </trkpt>
      <trkpt lat="47.25685" lon="6.07305">
        <ele>315.2</ele>
        <time>2012-02-13T14:35:26Z</time>
      </trkpt>
      <trkpt lat="47.2568" lon="6.07299">
        <ele>313.9</ele>
        <time>2012-02-13T14:35:32Z</time>
      </trkpt>
      <trkpt lat="47.25673" lon="6.07296">
        <ele>315.2</ele>
        <time>2012-02-13T14:35:38Z</time>
      </trkpt>
      <trkpt lat="47.25668" lon="6.07291">
        <ele>316.7</ele>
        <time>2012-02-13T14:35:45Z</time>
      </trkpt>
      <trkpt lat="47.25662" lon="6.07287">
        <ele>317.9</ele>
        <time>2012-02-13T14:35:51Z</time>
      </trkpt>
      <trkpt lat="47.25663" lon="6.07277">
        <ele>315.6</ele>
        <time>2012-02-13T14:35:57Z</time>
      </trkpt>
      <trkpt lat="47.25663" lon="6.07277">
        <ele>276</ele>
        <time>2012-02-13T14:36:09Z</time>
      </trkpt>
      <trkpt lat="47.25663" lon="6.07277">
        <ele>276</ele>
        <time>2012-02-13T14:36:33Z</time>
      </trkpt>
      <trkpt lat="47.25672" lon="6.07262">
        <ele>316.1</ele>
        <time>2012-02-13T14:36:39Z</time>
      </trkpt>
      <trkpt lat="47.25673" lon="6.07252">
        <ele>316.5</ele>
        <time>2012-02-13T14:36:45Z</time>
      </trkpt>
      <trkpt lat="47.25674" lon="6.07242">
        <ele>315.5</ele>
        <time>2012-02-13T14:36:52Z</time>
      </trkpt>
      <trkpt lat="47.25678" lon="6.07234">
        <ele>314.7</ele>
        <time>2012-02-13T14:36:57Z</time>
      </trkpt>
      <trkpt lat="47.25683" lon="6.07225">
        <ele>314.8</ele>
        <time>2012-02-13T14:37:06Z</time>
      </trkpt>
      <trkpt lat="47.2569" lon="6.07222">
        <ele>317.2</ele>
        <time>2012-02-13T14:37:16Z</time>
      </trkpt>
      <trkpt lat="47.2569" lon="6.07222">
        <ele>275.8</ele>
        <time>2012-02-13T14:37:28Z</time>
      </trkpt>
      <trkpt lat="47.2569" lon="6.07222">
        <ele>275.8</ele>
        <time>2012-02-13T14:37:29Z</time>
      </trkpt>
      <trkpt lat="47.25699" lon="6.07208">
        <ele>319.4</ele>
        <time>2012-02-13T14:37:34Z</time>
      </trkpt>
      <trkpt lat="47.25703" lon="6.07198">
        <ele>320.1</ele>
        <time>2012-02-13T14:37:39Z</time>
      </trkpt>
      <trkpt lat="47.25707" lon="6.07191">
        <ele>320.1</ele>
        <time>2012-02-13T14:37:46Z</time>
      </trkpt>
      <trkpt lat="47.25707" lon="6.0718">
        <ele>319</ele>
        <time>2012-02-13T14:37:52Z</time>
      </trkpt>
      <trkpt lat="47.2571" lon="6.07172">
        <ele>318.1</ele>
        <time>2012-02-13T14:38:00Z</time>
      </trkpt>
      <trkpt lat="47.25715" lon="6.07167">
        <ele>317.9</ele>
        <time>2012-02-13T14:38:05Z</time>
      </trkpt>
      <trkpt lat="47.25721" lon="6.07159">
        <ele>318.5</ele>
        <time>2012-02-13T14:38:13Z</time>
      </trkpt>
      <trkpt lat="47.25722" lon="6.07148">
        <ele>320.1</ele>
        <time>2012-02-13T14:38:19Z</time>
      </trkpt>
      <trkpt lat="47.25727" lon="6.07139">
        <ele>321</ele>
        <time>2012-02-13T14:38:28Z</time>
      </trkpt>
      <trkpt lat="47.25726" lon="6.0713">
        <ele>320.9</ele>
        <time>2012-02-13T14:38:34Z</time>
      </trkpt>
      <trkpt lat="47.2573" lon="6.07121">
        <ele>320.1</ele>
        <time>2012-02-13T14:38:41Z</time>
      </trkpt>
      <trkpt lat="47.25731" lon="6.07111">
        <ele>320.7</ele>
        <time>2012-02-13T14:38:46Z</time>
      </trkpt>
      <trkpt lat="47.25734" lon="6.07101">
        <ele>321.6</ele>
        <time>2012-02-13T14:38:55Z</time>
      </trkpt>
      <trkpt lat="47.2574" lon="6.07097">
        <ele>322.7</ele>
        <time>2012-02-13T14:39:02Z</time>
      </trkpt>
      <trkpt lat="47.25745" lon="6.0709">
        <ele>322.7</ele>
        <time>2012-02-13T14:39:08Z</time>
      </trkpt>
      <trkpt lat="47.25745" lon="6.0708">
        <ele>321.7</ele>
        <time>2012-02-13T14:39:17Z</time>
      </trkpt>
      <trkpt lat="47.25745" lon="6.0707">
        <ele>321.3</ele>
        <time>2012-02-13T14:39:25Z</time>
      </trkpt>
      <trkpt lat="47.25745" lon="6.0707">
        <ele>282.9</ele>
        <time>2012-02-13T14:39:37Z</time>
      </trkpt>
      <trkpt lat="47.25745" lon="6.0707">
        <ele>282.9</ele>
        <time>2012-02-13T14:42:34Z</time>
      </trkpt>
      <trkpt lat="47.25756" lon="6.07066">
        <ele>332.1</ele>
        <time>2012-02-13T14:42:41Z</time>
      </trkpt>
      <trkpt lat="47.25756" lon="6.07066">
        <ele>281.6</ele>
        <time>2012-02-13T14:42:54Z</time>
      </trkpt>
      <trkpt lat="47.25756" lon="6.07066">
        <ele>281.6</ele>
        <time>2012-02-13T14:43:00Z</time>
      </trkpt>
      <trkpt lat="47.25767" lon="6.07076">
        <ele>332.7</ele>
        <time>2012-02-13T14:43:04Z</time>
      </trkpt>
      <trkpt lat="47.25769" lon="6.07066">
        <ele>330.5</ele>
        <time>2012-02-13T14:43:11Z</time>
      </trkpt>
      <trkpt lat="47.25763" lon="6.07063">
        <ele>328.6</ele>
        <time>2012-02-13T14:43:16Z</time>
      </trkpt>
      <trkpt lat="47.25756" lon="6.07062">
        <ele>327.6</ele>
        <time>2012-02-13T14:43:21Z</time>
      </trkpt>
      <trkpt lat="47.2575" lon="6.07057">
        <ele>327.7</ele>
        <time>2012-02-13T14:43:30Z</time>
      </trkpt>
      <trkpt lat="47.25751" lon="6.07046">
        <ele>327.5</ele>
        <time>2012-02-13T14:43:34Z</time>
      </trkpt>
      <trkpt lat="47.25751" lon="6.07046">
        <ele>279.7</ele>
        <time>2012-02-13T14:43:46Z</time>
      </trkpt>
      <trkpt lat="47.25751" lon="6.07046">
        <ele>279.7</ele>
        <time>2012-02-13T14:44:19Z</time>
      </trkpt>
      <trkpt lat="47.2574" lon="6.07035">
        <ele>324.4</ele>
        <time>2012-02-13T14:44:26Z</time>
      </trkpt>
      <trkpt lat="47.25732" lon="6.07035">
        <ele>324.9</ele>
        <time>2012-02-13T14:44:32Z</time>
      </trkpt>
      <trkpt lat="47.25726" lon="6.0703">
        <ele>325.2</ele>
        <time>2012-02-13T14:44:38Z</time>
      </trkpt>
      <trkpt lat="47.25719" lon="6.07028">
        <ele>325</ele>
        <time>2012-02-13T14:44:47Z</time>
      </trkpt>
      <trkpt lat="47.25712" lon="6.07026">
        <ele>325.8</ele>
        <time>2012-02-13T14:44:52Z</time>
      </trkpt>
      <trkpt lat="47.25707" lon="6.07022">
        <ele>325.5</ele>
        <time>2012-02-13T14:44:58Z</time>
      </trkpt>
      <trkpt lat="47.257" lon="6.07023">
        <ele>326.1</ele>
        <time>2012-02-13T14:45:03Z</time>
      </trkpt>
      <trkpt lat="47.25693" lon="6.07021">
        <ele>326.9</ele>
        <time>2012-02-13T14:45:09Z</time>
      </trkpt>
      <trkpt lat="47.25688" lon="6.07014">
        <ele>326.6</ele>
        <time>2012-02-13T14:45:14Z</time>
      </trkpt>
      <trkpt lat="47.25681" lon="6.07015">
        <ele>327.8</ele>
        <time>2012-02-13T14:45:22Z</time>
      </trkpt>
      <trkpt lat="47.25676" lon="6.07009">
        <ele>329.2</ele>
        <time>2012-02-13T14:45:29Z</time>
      </trkpt>
      <trkpt lat="47.25669" lon="6.07007">
        <ele>330.5</ele>
        <time>2012-02-13T14:45:35Z</time>
      </trkpt>
      <trkpt lat="47.25662" lon="6.07008">
        <ele>332.8</ele>
        <time>2012-02-13T14:45:41Z</time>
      </trkpt>
      <trkpt lat="47.25656" lon="6.07002">
        <ele>335.1</ele>
        <time>2012-02-13T14:45:47Z</time>
      </trkpt>
      <trkpt lat="47.25651" lon="6.06996">
        <ele>335.6</ele>
        <time>2012-02-13T14:45:55Z</time>
      </trkpt>
      <trkpt lat="47.25644" lon="6.06995">
        <ele>335.3</ele>
        <time>2012-02-13T14:46:02Z</time>
      </trkpt>
      <trkpt lat="47.25637" lon="6.06992">
        <ele>335.4</ele>
        <time>2012-02-13T14:46:07Z</time>
      </trkpt>
      <trkpt lat="47.2563" lon="6.06991">
        <ele>336.1</ele>
        <time>2012-02-13T14:46:18Z</time>
      </trkpt>
      <trkpt lat="47.25625" lon="6.06984">
        <ele>337.6</ele>
        <time>2012-02-13T14:46:25Z</time>
      </trkpt>
      <trkpt lat="47.25618" lon="6.06986">
        <ele>337.9</ele>
        <time>2012-02-13T14:46:30Z</time>
      </trkpt>
      <trkpt lat="47.25612" lon="6.06983">
        <ele>338.6</ele>
        <time>2012-02-13T14:46:36Z</time>
      </trkpt>
      <trkpt lat="47.25605" lon="6.06982">
        <ele>341.2</ele>
        <time>2012-02-13T14:46:42Z</time>
      </trkpt>
      <trkpt lat="47.25599" lon="6.06981">
        <ele>339.3</ele>
        <time>2012-02-13T14:46:50Z</time>
      </trkpt>
      <trkpt lat="47.25592" lon="6.06979">
        <ele>340.7</ele>
        <time>2012-02-13T14:46:56Z</time>
      </trkpt>
      <trkpt lat="47.25585" lon="6.06976">
        <ele>341.6</ele>
        <time>2012-02-13T14:47:02Z</time>
      </trkpt>
      <trkpt lat="47.25585" lon="6.06976">
        <ele>293.8</ele>
        <time>2012-02-13T14:47:14Z</time>
      </trkpt>
      <trkpt lat="47.25585" lon="6.06976">
        <ele>293.8</ele>
        <time>2012-02-13T14:47:21Z</time>
      </trkpt>
      <trkpt lat="47.25573" lon="6.06967">
        <ele>340.5</ele>
        <time>2012-02-13T14:47:29Z</time>
      </trkpt>
      <trkpt lat="47.25569" lon="6.06959">
        <ele>340.5</ele>
        <time>2012-02-13T14:47:37Z</time>
      </trkpt>
      <trkpt lat="47.25569" lon="6.06959">
        <ele>295.1</ele>
        <time>2012-02-13T14:47:48Z</time>
      </trkpt>
      <trkpt lat="47.25569" lon="6.06959">
        <ele>295.1</ele>
        <time>2012-02-13T14:48:10Z</time>
      </trkpt>
      <trkpt lat="47.25555" lon="6.06962">
        <ele>335.4</ele>
        <time>2012-02-13T14:48:16Z</time>
      </trkpt>
      <trkpt lat="47.25549" lon="6.06959">
        <ele>337.6</ele>
        <time>2012-02-13T14:48:23Z</time>
      </trkpt>
      <trkpt lat="47.25543" lon="6.06955">
        <ele>339.5</ele>
        <time>2012-02-13T14:48:32Z</time>
      </trkpt>
      <trkpt lat="47.25538" lon="6.06948">
        <ele>338.6</ele>
        <time>2012-02-13T14:48:39Z</time>
      </trkpt>
      <trkpt lat="47.25532" lon="6.06943">
        <ele>338.6</ele>
        <time>2012-02-13T14:48:45Z</time>
      </trkpt>
      <trkpt lat="47.25531" lon="6.06933">
        <ele>336.5</ele>
        <time>2012-02-13T14:48:49Z</time>
      </trkpt>
      <trkpt lat="47.25525" lon="6.06935">
        <ele>336.4</ele>
        <time>2012-02-13T14:48:57Z</time>
      </trkpt>
      <trkpt lat="47.25524" lon="6.06925">
        <ele>336</ele>
        <time>2012-02-13T14:49:07Z</time>
      </trkpt>
      <trkpt lat="47.25519" lon="6.06918">
        <ele>337.6</ele>
        <time>2012-02-13T14:49:13Z</time>
      </trkpt>
      <trkpt lat="47.25514" lon="6.06912">
        <ele>336.6</ele>
        <time>2012-02-13T14:49:19Z</time>
      </trkpt>
      <trkpt lat="47.25509" lon="6.06903">
        <ele>334.7</ele>
        <time>2012-02-13T14:49:24Z</time>
      </trkpt>
      <trkpt lat="47.25509" lon="6.06903">
        <ele>299.8</ele>
        <time>2012-02-13T14:49:36Z</time>
      </trkpt>
      <trkpt lat="47.25509" lon="6.06903">
        <ele>299.8</ele>
        <time>2012-02-13T14:49:37Z</time>
      </trkpt>
      <trkpt lat="47.25507" lon="6.06885">
        <ele>332.6</ele>
        <time>2012-02-13T14:49:41Z</time>
      </trkpt>
      <trkpt lat="47.25504" lon="6.06877">
        <ele>331.3</ele>
        <time>2012-02-13T14:49:46Z</time>
      </trkpt>
      <trkpt lat="47.25501" lon="6.06867">
        <ele>332.7</ele>
        <time>2012-02-13T14:49:53Z</time>
      </trkpt>
      <trkpt lat="47.25498" lon="6.06858">
        <ele>332.7</ele>
        <time>2012-02-13T14:50:00Z</time>
      </trkpt>
      <trkpt lat="47.25491" lon="6.06853">
        <ele>332.3</ele>
        <time>2012-02-13T14:50:06Z</time>
      </trkpt>
      <trkpt lat="47.25486" lon="6.06847">
        <ele>334.4</ele>
        <time>2012-02-13T14:50:12Z</time>
      </trkpt>
      <trkpt lat="47.25482" lon="6.06839">
        <ele>335.5</ele>
        <time>2012-02-13T14:50:17Z</time>
      </trkpt>
      <trkpt lat="47.25482" lon="6.06839">
        <ele>304</ele>
        <time>2012-02-13T14:50:29Z</time>
      </trkpt>
      <trkpt lat="47.25482" lon="6.06839">
        <ele>304</ele>
        <time>2012-02-13T14:50:30Z</time>
      </trkpt>
      <trkpt lat="47.25471" lon="6.06825">
        <ele>339.2</ele>
        <time>2012-02-13T14:50:35Z</time>
      </trkpt>
      <trkpt lat="47.25471" lon="6.06815">
        <ele>339.6</ele>
        <time>2012-02-13T14:50:39Z</time>
      </trkpt>
      <trkpt lat="47.25471" lon="6.06815">
        <ele>306.9</ele>
        <time>2012-02-13T14:50:52Z</time>
      </trkpt>
      <trkpt lat="47.25471" lon="6.06815">
        <ele>306.9</ele>
        <time>2012-02-13T14:50:52Z</time>
      </trkpt>
      <trkpt lat="47.25462" lon="6.06807">
        <ele>341.9</ele>
        <time>2012-02-13T14:50:57Z</time>
      </trkpt>
      <trkpt lat="47.25455" lon="6.06803">
        <ele>342.2</ele>
        <time>2012-02-13T14:51:03Z</time>
      </trkpt>
      <trkpt lat="47.25455" lon="6.06794">
        <ele>341.7</ele>
        <time>2012-02-13T14:51:10Z</time>
      </trkpt>
      <trkpt lat="47.25453" lon="6.06784">
        <ele>343.1</ele>
        <time>2012-02-13T14:51:15Z</time>
      </trkpt>
      <trkpt lat="47.25456" lon="6.06775">
        <ele>345</ele>
        <time>2012-02-13T14:51:21Z</time>
      </trkpt>
      <trkpt lat="47.2546" lon="6.06766">
        <ele>345.6</ele>
        <time>2012-02-13T14:51:25Z</time>
      </trkpt>
      <trkpt lat="47.2546" lon="6.06766">
        <ele>314.1</ele>
        <time>2012-02-13T14:51:37Z</time>
      </trkpt>
      <trkpt lat="47.2546" lon="6.06766">
        <ele>314.1</ele>
        <time>2012-02-13T14:53:21Z</time>
      </trkpt>
      <trkpt lat="47.2546" lon="6.06766">
        <ele>314.1</ele>
        <time>2012-02-13T14:53:32Z</time>
      </trkpt>
      <trkpt lat="47.2546" lon="6.06766">
        <ele>314.1</ele>
        <time>2012-02-13T14:53:33Z</time>
      </trkpt>
      <trkpt lat="47.25449" lon="6.06749">
        <ele>351.7</ele>
        <time>2012-02-13T14:53:37Z</time>
      </trkpt>
      <trkpt lat="47.25442" lon="6.06745">
        <ele>352</ele>
        <time>2012-02-13T14:53:48Z</time>
      </trkpt>
      <trkpt lat="47.2544" lon="6.06735">
        <ele>354.6</ele>
        <time>2012-02-13T14:53:56Z</time>
      </trkpt>
      <trkpt lat="47.25436" lon="6.06727">
        <ele>356</ele>
        <time>2012-02-13T14:54:04Z</time>
      </trkpt>
      <trkpt lat="47.25432" lon="6.06718">
        <ele>358.2</ele>
        <time>2012-02-13T14:54:13Z</time>
      </trkpt>
      <trkpt lat="47.25426" lon="6.06716">
        <ele>360</ele>
        <time>2012-02-13T14:54:19Z</time>
      </trkpt>
      <trkpt lat="47.25422" lon="6.06709">
        <ele>360</ele>
        <time>2012-02-13T14:54:30Z</time>
      </trkpt>
      <trkpt lat="47.25422" lon="6.06709">
        <ele>324.1</ele>
        <time>2012-02-13T14:54:42Z</time>
      </trkpt>
      <trkpt lat="47.25422" lon="6.06709">
        <ele>324.1</ele>
        <time>2012-02-13T14:54:42Z</time>
      </trkpt>
      <trkpt lat="47.25422" lon="6.06709">
        <ele>324.1</ele>
        <time>2012-02-13T14:54:54Z</time>
      </trkpt>
      <trkpt lat="47.25422" lon="6.06709">
        <ele>324.1</ele>
        <time>2012-02-13T14:54:58Z</time>
      </trkpt>
      <trkpt lat="47.25408" lon="6.06686">
        <ele>360.2</ele>
        <time>2012-02-13T14:55:05Z</time>
      </trkpt>
      <trkpt lat="47.25404" lon="6.06679">
        <ele>364.5</ele>
        <time>2012-02-13T14:55:14Z</time>
      </trkpt>
      <trkpt lat="47.25404" lon="6.06679">
        <ele>332</ele>
        <time>2012-02-13T14:55:26Z</time>
      </trkpt>
      <trkpt lat="47.25404" lon="6.06679">
        <ele>332</ele>
        <time>2012-02-13T14:55:56Z</time>
      </trkpt>
      <trkpt lat="47.25395" lon="6.06659">
        <ele>369.5</ele>
        <time>2012-02-13T14:55:58Z</time>
      </trkpt>
      <trkpt lat="47.25394" lon="6.0665">
        <ele>369.9</ele>
        <time>2012-02-13T14:56:02Z</time>
      </trkpt>
      <trkpt lat="47.25395" lon="6.0664">
        <ele>371.8</ele>
        <time>2012-02-13T14:56:07Z</time>
      </trkpt>
      <trkpt lat="47.25391" lon="6.06633">
        <ele>373.1</ele>
        <time>2012-02-13T14:56:12Z</time>
      </trkpt>
      <trkpt lat="47.25391" lon="6.06623">
        <ele>372.8</ele>
        <time>2012-02-13T14:56:17Z</time>
      </trkpt>
      <trkpt lat="47.25388" lon="6.06615">
        <ele>373.7</ele>
        <time>2012-02-13T14:56:24Z</time>
      </trkpt>
      <trkpt lat="47.25386" lon="6.06604">
        <ele>374.2</ele>
        <time>2012-02-13T14:56:33Z</time>
      </trkpt>
      <trkpt lat="47.25387" lon="6.06595">
        <ele>375.3</ele>
        <time>2012-02-13T14:56:38Z</time>
      </trkpt>
      <trkpt lat="47.25381" lon="6.06591">
        <ele>374.4</ele>
        <time>2012-02-13T14:56:44Z</time>
      </trkpt>
      <trkpt lat="47.25377" lon="6.06582">
        <ele>376.8</ele>
        <time>2012-02-13T14:56:53Z</time>
      </trkpt>
      <trkpt lat="47.25377" lon="6.06582">
        <ele>342.5</ele>
        <time>2012-02-13T14:57:05Z</time>
      </trkpt>
      <trkpt lat="47.25377" lon="6.06582">
        <ele>342.5</ele>
        <time>2012-02-13T14:57:06Z</time>
      </trkpt>
      <trkpt lat="47.25375" lon="6.06564">
        <ele>377.8</ele>
        <time>2012-02-13T14:57:17Z</time>
      </trkpt>
      <trkpt lat="47.25372" lon="6.06556">
        <ele>377.3</ele>
        <time>2012-02-13T14:57:22Z</time>
      </trkpt>
      <trkpt lat="47.25367" lon="6.06547">
        <ele>376.7</ele>
        <time>2012-02-13T14:57:31Z</time>
      </trkpt>
      <trkpt lat="47.25364" lon="6.06538">
        <ele>376.9</ele>
        <time>2012-02-13T14:57:36Z</time>
      </trkpt>
      <trkpt lat="47.25361" lon="6.06526">
        <ele>379.6</ele>
        <time>2012-02-13T14:57:43Z</time>
      </trkpt>
      <trkpt lat="47.25357" lon="6.06518">
        <ele>382.2</ele>
        <time>2012-02-13T14:57:50Z</time>
      </trkpt>
      <trkpt lat="47.25358" lon="6.06508">
        <ele>383.9</ele>
        <time>2012-02-13T14:57:55Z</time>
      </trkpt>
      <trkpt lat="47.25358" lon="6.06497">
        <ele>385.1</ele>
        <time>2012-02-13T14:58:01Z</time>
      </trkpt>
      <trkpt lat="47.25356" lon="6.06488">
        <ele>384.1</ele>
        <time>2012-02-13T14:58:09Z</time>
      </trkpt>
      <trkpt lat="47.25356" lon="6.06488">
        <ele>346.4</ele>
        <time>2012-02-13T14:58:21Z</time>
      </trkpt>
      <trkpt lat="47.25356" lon="6.06488">
        <ele>346.4</ele>
        <time>2012-02-13T14:59:11Z</time>
      </trkpt>
      <trkpt lat="47.25356" lon="6.06488">
        <ele>346.4</ele>
        <time>2012-02-13T14:59:23Z</time>
      </trkpt>
      <trkpt lat="47.25356" lon="6.06488">
        <ele>346.4</ele>
        <time>2012-02-13T15:01:49Z</time>
      </trkpt>
      <trkpt lat="47.25347" lon="6.06476">
        <ele>384.4</ele>
        <time>2012-02-13T15:01:55Z</time>
      </trkpt>
      <trkpt lat="47.25343" lon="6.06467">
        <ele>387</ele>
        <time>2012-02-13T15:02:00Z</time>
      </trkpt>
      <trkpt lat="47.25338" lon="6.06458">
        <ele>388.5</ele>
        <time>2012-02-13T15:02:05Z</time>
      </trkpt>
      <trkpt lat="47.25335" lon="6.06449">
        <ele>389.9</ele>
        <time>2012-02-13T15:02:11Z</time>
      </trkpt>
      <trkpt lat="47.25334" lon="6.0644">
        <ele>390.5</ele>
        <time>2012-02-13T15:02:17Z</time>
      </trkpt>
      <trkpt lat="47.25329" lon="6.06433">
        <ele>391.7</ele>
        <time>2012-02-13T15:02:24Z</time>
      </trkpt>
      <trkpt lat="47.25323" lon="6.06431">
        <ele>389.2</ele>
        <time>2012-02-13T15:02:34Z</time>
      </trkpt>
      <trkpt lat="47.25317" lon="6.06437">
        <ele>387.9</ele>
        <time>2012-02-13T15:02:40Z</time>
      </trkpt>
      <trkpt lat="47.25317" lon="6.06437">
        <ele>349.2</ele>
        <time>2012-02-13T15:02:52Z</time>
      </trkpt>
      <trkpt lat="47.25317" lon="6.06437">
        <ele>349.2</ele>
        <time>2012-02-13T15:02:53Z</time>
      </trkpt>
      <trkpt lat="47.25308" lon="6.06453">
        <ele>392.5</ele>
        <time>2012-02-13T15:02:58Z</time>
      </trkpt>
      <trkpt lat="47.25302" lon="6.06459">
        <ele>394.9</ele>
        <time>2012-02-13T15:03:03Z</time>
      </trkpt>
      <trkpt lat="47.25302" lon="6.06459">
        <ele>350.5</ele>
        <time>2012-02-13T15:03:16Z</time>
      </trkpt>
      <trkpt lat="47.25302" lon="6.06459">
        <ele>350.5</ele>
        <time>2012-02-13T15:03:19Z</time>
      </trkpt>
      <trkpt lat="47.25291" lon="6.06473">
        <ele>397.5</ele>
        <time>2012-02-13T15:03:22Z</time>
      </trkpt>
      <trkpt lat="47.25285" lon="6.06478">
        <ele>398</ele>
        <time>2012-02-13T15:03:26Z</time>
      </trkpt>
      <trkpt lat="47.2528" lon="6.06485">
        <ele>399</ele>
        <time>2012-02-13T15:03:32Z</time>
      </trkpt>
      <trkpt lat="47.25275" lon="6.06491">
        <ele>398.9</ele>
        <time>2012-02-13T15:03:38Z</time>
      </trkpt>
      <trkpt lat="47.25267" lon="6.06496">
        <ele>398.9</ele>
        <time>2012-02-13T15:03:42Z</time>
      </trkpt>
      <trkpt lat="47.25267" lon="6.06496">
        <ele>354.4</ele>
        <time>2012-02-13T15:03:54Z</time>
      </trkpt>
      <trkpt lat="47.25267" lon="6.06496">
        <ele>354.4</ele>
        <time>2012-02-13T15:03:56Z</time>
      </trkpt>
      <trkpt lat="47.25252" lon="6.06496">
        <ele>397.1</ele>
        <time>2012-02-13T15:04:00Z</time>
      </trkpt>
      <trkpt lat="47.25246" lon="6.06498">
        <ele>397.5</ele>
        <time>2012-02-13T15:04:05Z</time>
      </trkpt>
      <trkpt lat="47.25241" lon="6.06489">
        <ele>395.6</ele>
        <time>2012-02-13T15:04:10Z</time>
      </trkpt>
      <trkpt lat="47.25237" lon="6.06481">
        <ele>395.6</ele>
        <time>2012-02-13T15:04:20Z</time>
      </trkpt>
      <trkpt lat="47.25229" lon="6.06479">
        <ele>396.5</ele>
        <time>2012-02-13T15:04:24Z</time>
      </trkpt>
      <trkpt lat="47.25223" lon="6.06477">
        <ele>398.7</ele>
        <time>2012-02-13T15:04:32Z</time>
      </trkpt>
      <trkpt lat="47.25218" lon="6.06471">
        <ele>399.2</ele>
        <time>2012-02-13T15:04:40Z</time>
      </trkpt>
      <trkpt lat="47.25213" lon="6.06463">
        <ele>400</ele>
        <time>2012-02-13T15:04:47Z</time>
      </trkpt>
      <trkpt lat="47.25206" lon="6.06462">
        <ele>399.2</ele>
        <time>2012-02-13T15:04:52Z</time>
      </trkpt>
      <trkpt lat="47.25199" lon="6.06459">
        <ele>400</ele>
        <time>2012-02-13T15:04:57Z</time>
      </trkpt>
      <trkpt lat="47.25192" lon="6.0646">
        <ele>399.7</ele>
        <time>2012-02-13T15:05:02Z</time>
      </trkpt>
      <trkpt lat="47.25187" lon="6.06454">
        <ele>401.6</ele>
        <time>2012-02-13T15:05:10Z</time>
      </trkpt>
      <trkpt lat="47.25181" lon="6.06448">
        <ele>401.1</ele>
        <time>2012-02-13T15:05:18Z</time>
      </trkpt>
      <trkpt lat="47.25174" lon="6.06445">
        <ele>399.7</ele>
        <time>2012-02-13T15:05:24Z</time>
      </trkpt>
      <trkpt lat="47.25167" lon="6.06441">
        <ele>400.4</ele>
        <time>2012-02-13T15:05:31Z</time>
      </trkpt>
      <trkpt lat="47.2516" lon="6.0644">
        <ele>401</ele>
        <time>2012-02-13T15:05:36Z</time>
      </trkpt>
      <trkpt lat="47.25153" lon="6.06436">
        <ele>402.7</ele>
        <time>2012-02-13T15:05:44Z</time>
      </trkpt>
      <trkpt lat="47.25146" lon="6.06436">
        <ele>402.2</ele>
        <time>2012-02-13T15:05:48Z</time>
      </trkpt>
      <trkpt lat="47.25139" lon="6.06433">
        <ele>400.9</ele>
        <time>2012-02-13T15:05:55Z</time>
      </trkpt>
      <trkpt lat="47.25132" lon="6.06433">
        <ele>401</ele>
        <time>2012-02-13T15:05:59Z</time>
      </trkpt>
      <trkpt lat="47.25125" lon="6.0643">
        <ele>401.3</ele>
        <time>2012-02-13T15:06:06Z</time>
      </trkpt>
      <trkpt lat="47.25119" lon="6.06425">
        <ele>402</ele>
        <time>2012-02-13T15:06:11Z</time>
      </trkpt>
      <trkpt lat="47.25114" lon="6.06418">
        <ele>400.7</ele>
        <time>2012-02-13T15:06:17Z</time>
      </trkpt>
      <trkpt lat="47.25108" lon="6.06416">
        <ele>399.4</ele>
        <time>2012-02-13T15:06:22Z</time>
      </trkpt>
      <trkpt lat="47.25101" lon="6.06414">
        <ele>399.3</ele>
        <time>2012-02-13T15:06:28Z</time>
      </trkpt>
      <trkpt lat="47.25094" lon="6.0641">
        <ele>399.5</ele>
        <time>2012-02-13T15:06:36Z</time>
      </trkpt>
      <trkpt lat="47.25088" lon="6.06404">
        <ele>400.5</ele>
        <time>2012-02-13T15:06:42Z</time>
      </trkpt>
      <trkpt lat="47.25082" lon="6.06398">
        <ele>400.5</ele>
        <time>2012-02-13T15:06:48Z</time>
      </trkpt>
      <trkpt lat="47.25081" lon="6.06389">
        <ele>400.9</ele>
        <time>2012-02-13T15:06:53Z</time>
      </trkpt>
      <trkpt lat="47.25086" lon="6.06382">
        <ele>402.4</ele>
        <time>2012-02-13T15:06:58Z</time>
      </trkpt>
      <trkpt lat="47.25086" lon="6.06382">
        <ele>357.6</ele>
        <time>2012-02-13T15:07:10Z</time>
      </trkpt>
      <trkpt lat="47.25086" lon="6.06382">
        <ele>357.6</ele>
        <time>2012-02-13T15:10:12Z</time>
      </trkpt>
      <trkpt lat="47.25086" lon="6.06382">
        <ele>357.6</ele>
        <time>2012-02-13T15:10:24Z</time>
      </trkpt>
      <trkpt lat="47.25086" lon="6.06382">
        <ele>357.6</ele>
        <time>2012-02-13T15:11:32Z</time>
      </trkpt>
      <trkpt lat="47.25092" lon="6.06357">
        <ele>401.6</ele>
        <time>2012-02-13T15:11:41Z</time>
      </trkpt>
      <trkpt lat="47.25098" lon="6.0636">
        <ele>404.7</ele>
        <time>2012-02-13T15:11:51Z</time>
      </trkpt>
      <trkpt lat="47.25104" lon="6.06364">
        <ele>405.4</ele>
        <time>2012-02-13T15:11:57Z</time>
      </trkpt>
      <trkpt lat="47.25097" lon="6.06368">
        <ele>406.6</ele>
        <time>2012-02-13T15:12:04Z</time>
      </trkpt>
      <trkpt lat="47.25097" lon="6.06368">
        <ele>359.3</ele>
        <time>2012-02-13T15:12:15Z</time>
      </trkpt>
      <trkpt lat="47.25097" lon="6.06368">
        <ele>359.3</ele>
        <time>2012-02-13T15:14:23Z</time>
      </trkpt>
      <trkpt lat="47.25084" lon="6.06378">
        <ele>407</ele>
        <time>2012-02-13T15:14:30Z</time>
      </trkpt>
      <trkpt lat="47.25078" lon="6.06382">
        <ele>406.5</ele>
        <time>2012-02-13T15:14:35Z</time>
      </trkpt>
      <trkpt lat="47.25071" lon="6.06379">
        <ele>403.4</ele>
        <time>2012-02-13T15:14:44Z</time>
      </trkpt>
      <trkpt lat="47.25071" lon="6.06379">
        <ele>357.3</ele>
        <time>2012-02-13T15:14:56Z</time>
      </trkpt>
      <trkpt lat="47.25071" lon="6.06379">
        <ele>357.3</ele>
        <time>2012-02-13T15:15:45Z</time>
      </trkpt>
      <trkpt lat="47.25064" lon="6.06371">
        <ele>398.3</ele>
        <time>2012-02-13T15:15:50Z</time>
      </trkpt>
      <trkpt lat="47.2506" lon="6.06364">
        <ele>397.2</ele>
        <time>2012-02-13T15:15:57Z</time>
      </trkpt>
      <trkpt lat="47.25057" lon="6.06354">
        <ele>396.2</ele>
        <time>2012-02-13T15:16:05Z</time>
      </trkpt>
      <trkpt lat="47.25054" lon="6.06346">
        <ele>393.3</ele>
        <time>2012-02-13T15:16:12Z</time>
      </trkpt>
      <trkpt lat="47.25047" lon="6.06344">
        <ele>393.2</ele>
        <time>2012-02-13T15:16:20Z</time>
      </trkpt>
      <trkpt lat="47.25046" lon="6.06334">
        <ele>392.4</ele>
        <time>2012-02-13T15:16:26Z</time>
      </trkpt>
      <trkpt lat="47.25041" lon="6.06329">
        <ele>393.1</ele>
        <time>2012-02-13T15:16:35Z</time>
      </trkpt>
      <trkpt lat="47.25035" lon="6.06324">
        <ele>394.7</ele>
        <time>2012-02-13T15:16:41Z</time>
      </trkpt>
      <trkpt lat="47.25036" lon="6.06314">
        <ele>395.7</ele>
        <time>2012-02-13T15:16:48Z</time>
      </trkpt>
      <trkpt lat="47.25029" lon="6.06309">
        <ele>396.4</ele>
        <time>2012-02-13T15:16:54Z</time>
      </trkpt>
      <trkpt lat="47.25025" lon="6.063">
        <ele>396.8</ele>
        <time>2012-02-13T15:17:02Z</time>
      </trkpt>
      <trkpt lat="47.2502" lon="6.06293">
        <ele>397.6</ele>
        <time>2012-02-13T15:17:09Z</time>
      </trkpt>
      <trkpt lat="47.25012" lon="6.06292">
        <ele>399</ele>
        <time>2012-02-13T15:17:16Z</time>
      </trkpt>
      <trkpt lat="47.25005" lon="6.06288">
        <ele>398.6</ele>
        <time>2012-02-13T15:17:24Z</time>
      </trkpt>
      <trkpt lat="47.24999" lon="6.06285">
        <ele>399.2</ele>
        <time>2012-02-13T15:17:30Z</time>
      </trkpt>
      <trkpt lat="47.24994" lon="6.06278">
        <ele>396.6</ele>
        <time>2012-02-13T15:17:35Z</time>
      </trkpt>
      <trkpt lat="47.24994" lon="6.06268">
        <ele>394.6</ele>
        <time>2012-02-13T15:17:41Z</time>
      </trkpt>
      <trkpt lat="47.24996" lon="6.06259">
        <ele>394.5</ele>
        <time>2012-02-13T15:17:44Z</time>
      </trkpt>
      <trkpt lat="47.25001" lon="6.06252">
        <ele>393.9</ele>
        <time>2012-02-13T15:17:49Z</time>
      </trkpt>
      <trkpt lat="47.25006" lon="6.06244">
        <ele>392.1</ele>
        <time>2012-02-13T15:17:57Z</time>
      </trkpt>
      <trkpt lat="47.25008" lon="6.06233">
        <ele>391.5</ele>
        <time>2012-02-13T15:18:04Z</time>
      </trkpt>
      <trkpt lat="47.25012" lon="6.06225">
        <ele>391.8</ele>
        <time>2012-02-13T15:18:08Z</time>
      </trkpt>
      <trkpt lat="47.25016" lon="6.06216">
        <ele>390.9</ele>
        <time>2012-02-13T15:18:13Z</time>
      </trkpt>
      <trkpt lat="47.25022" lon="6.06209">
        <ele>392</ele>
        <time>2012-02-13T15:18:22Z</time>
      </trkpt>
      <trkpt lat="47.2503" lon="6.06205">
        <ele>392.9</ele>
        <time>2012-02-13T15:18:31Z</time>
      </trkpt>
      <trkpt lat="47.25035" lon="6.06199">
        <ele>393.4</ele>
        <time>2012-02-13T15:18:39Z</time>
      </trkpt>
      <trkpt lat="47.2504" lon="6.06192">
        <ele>394.3</ele>
        <time>2012-02-13T15:18:43Z</time>
      </trkpt>
      <trkpt lat="47.25046" lon="6.06185">
        <ele>394.4</ele>
        <time>2012-02-13T15:18:50Z</time>
      </trkpt>
      <trkpt lat="47.25048" lon="6.06176">
        <ele>395.2</ele>
        <time>2012-02-13T15:18:56Z</time>
      </trkpt>
      <trkpt lat="47.25052" lon="6.06168">
        <ele>394.4</ele>
        <time>2012-02-13T15:19:04Z</time>
      </trkpt>
      <trkpt lat="47.25055" lon="6.0616">
        <ele>392</ele>
        <time>2012-02-13T15:19:13Z</time>
      </trkpt>
      <trkpt lat="47.2506" lon="6.06152">
        <ele>390.6</ele>
        <time>2012-02-13T15:19:18Z</time>
      </trkpt>
      <trkpt lat="47.25063" lon="6.06144">
        <ele>391</ele>
        <time>2012-02-13T15:19:25Z</time>
      </trkpt>
      <trkpt lat="47.25066" lon="6.06134">
        <ele>390.7</ele>
        <time>2012-02-13T15:19:32Z</time>
      </trkpt>
      <trkpt lat="47.25068" lon="6.06125">
        <ele>390.8</ele>
        <time>2012-02-13T15:19:37Z</time>
      </trkpt>
      <trkpt lat="47.25071" lon="6.06114">
        <ele>391.2</ele>
        <time>2012-02-13T15:19:45Z</time>
      </trkpt>
      <trkpt lat="47.25075" lon="6.06105">
        <ele>391.9</ele>
        <time>2012-02-13T15:19:51Z</time>
      </trkpt>
      <trkpt lat="47.25079" lon="6.06097">
        <ele>391.9</ele>
        <time>2012-02-13T15:19:55Z</time>
      </trkpt>
      <trkpt lat="47.25084" lon="6.0609">
        <ele>389.7</ele>
        <time>2012-02-13T15:20:02Z</time>
      </trkpt>
      <trkpt lat="47.25088" lon="6.06082">
        <ele>387.5</ele>
        <time>2012-02-13T15:20:08Z</time>
      </trkpt>
      <trkpt lat="47.25092" lon="6.06074">
        <ele>388</ele>
        <time>2012-02-13T15:20:16Z</time>
      </trkpt>
      <trkpt lat="47.25097" lon="6.06068">
        <ele>386.9</ele>
        <time>2012-02-13T15:20:22Z</time>
      </trkpt>
      <trkpt lat="47.25098" lon="6.06059">
        <ele>387.3</ele>
        <time>2012-02-13T15:20:33Z</time>
      </trkpt>
      <trkpt lat="47.25103" lon="6.06049">
        <ele>386.5</ele>
        <time>2012-02-13T15:20:40Z</time>
      </trkpt>
      <trkpt lat="47.25106" lon="6.0604">
        <ele>384.7</ele>
        <time>2012-02-13T15:20:46Z</time>
      </trkpt>
      <trkpt lat="47.25106" lon="6.0604">
        <ele>339</ele>
        <time>2012-02-13T15:20:58Z</time>
      </trkpt>
      <trkpt lat="47.25106" lon="6.0604">
        <ele>339</ele>
        <time>2012-02-13T15:22:57Z</time>
      </trkpt>
      <trkpt lat="47.25115" lon="6.06024">
        <ele>385.8</ele>
        <time>2012-02-13T15:23:03Z</time>
      </trkpt>
      <trkpt lat="47.25118" lon="6.06015">
        <ele>387.4</ele>
        <time>2012-02-13T15:23:09Z</time>
      </trkpt>
      <trkpt lat="47.25118" lon="6.06015">
        <ele>337.4</ele>
        <time>2012-02-13T15:23:21Z</time>
      </trkpt>
      <trkpt lat="47.25118" lon="6.06015">
        <ele>337.4</ele>
        <time>2012-02-13T15:23:28Z</time>
      </trkpt>
    </trkseg>
  </trk>
</gpx>